Flight Track Log - Related Links

Times and Time Zones

All times are in EDT time to prevent confusion due to time zone crossing. See the DAL268 flight status page for this flight to view local times or setup timezone preferences in your user account.

Time Position Orientation Groundspeed Altitude Reporting Facility
EDT Latitude Longitude Course Direction KTS MPH feet Rate Location/Type
Wed 09:57:34 PM 40.6310 -73.7780 270° West 82 94  Level FlightAware ADS-B
Wed 09:57:54 PM 40.6360 -73.7900 299° West 150 173 837 Level FlightAware ADS-B
Wed 09:58:17 PM 40.6470 -73.8120 303° West 181 208 600 1,742 Climbing FlightAware ADS-B
Wed 09:58:25 PM 40.6490 -73.8200 288° West 181 208 900 1,875 Climbing FlightAware ADS-B
Wed 09:58:33 PM 40.6510 -73.8290 286° West 186 214 1,100 1,500 Climbing FlightAware ADS-B
Wed 09:58:37 PM 40.6510 -73.8340 270° West 188 216 1,200 1,154 Climbing FlightAware ADS-B
Wed 09:58:59 PM 40.6430 -73.8590 247° West 214 246 1,600 938 Climbing FlightAware ADS-B
Wed 09:59:09 PM 40.6360 -73.8670 221° Southwest 229 264 1,700 1,200 Climbing FlightAware ADS-B
Wed 09:59:29 PM 40.6180 -73.8860 219° Southwest 246 283 2,200 1,333 Climbing FlightAware ADS-B
Wed 09:59:36 PM 40.6120 -73.8900 207° Southwest 252 290 2,300 947 Climbing FlightAware ADS-B
Wed 09:59:48 PM 40.5960 -73.8950 193° South 267 307 2,500 1,125 Climbing FlightAware ADS-B
Wed 09:59:52 PM 40.5910 -73.8950 180° South 271 312 2,600 1,500 Climbing FlightAware ADS-B
Wed 10:00:16 PM 40.5620 -73.8850 165° South 284 327 3,200 1,313 Climbing FlightAware ADS-B
Wed 10:00:24 PM 40.5550 -73.8800 152° Southeast 287 330 3,300 1,862 Climbing FlightAware ADS-B
Wed 10:00:45 PM 40.5380 -73.8510 128° Southeast 290 334 4,100 2,276 Climbing FlightAware ADS-B
Wed 10:00:53 PM 40.5350 -73.8370 106° East 287 330 4,400 2,333 Climbing FlightAware ADS-B
Wed 10:01:21 PM 40.5460 -73.7920 72° East 285 328 5,500 2,615 Climbing FlightAware ADS-B
Wed 10:01:32 PM 40.5570 -73.7760 48° Northeast 286 329 6,100 2,571 Climbing FlightAware ADS-B
Wed 10:01:56 PM 40.5780 -73.7460 47° Northeast 293 337 7,000 2,087 Climbing FlightAware ADS-B
Wed 10:02:18 PM 40.5990 -73.7160 47° Northeast 301 346 7,700 2,108 Climbing FlightAware ADS-B
Wed 10:02:33 PM 40.6120 -73.6970 48° Northeast 304 350 8,300 2,341 Climbing FlightAware ADS-B
Wed 10:02:59 PM 40.6360 -73.6600 49° Northeast 310 357 9,300 2,222 Climbing FlightAware ADS-B
Wed 10:03:27 PM 40.6650 -73.6220 45° Northeast 314 361 10,300 1,750 Climbing FlightAware ADS-B
Wed 10:03:47 PM 40.6910 -73.6020 30° Northeast 327 376 10,700 1,385 Climbing FlightAware ADS-B
Wed 10:04:19 PM 40.7390 -73.5700 27° Northeast 352 405 11,500 1,130 Climbing FlightAware ADS-B
Wed 10:04:56 PM 40.7910 -73.5360 26° Northeast 381 438 12,000 906 Climbing FlightAware ADS-B
Wed 10:05:12 PM 40.7911 -73.5362 299° West 399 459 12,300 1,532 Climbing FlightAware ADS-B (KSNC)
Wed 10:05:43 PM 40.8734 -73.4807 27° Northeast 411 473 13,200 2,000 Climbing FlightAware ADS-B (KSNC)
Wed 10:06:27 PM 40.9491 -73.4299 27° Northeast 418 481 14,800 2,169 Climbing FlightAware ADS-B (KSNC)
Wed 10:07:06 PM 41.0168 -73.3843 27° Northeast 424 488 16,200 1,975 Climbing FlightAware ADS-B (KSNC)
Wed 10:07:46 PM 41.0875 -73.3368 27° Northeast 432 497 17,400 1,833 Climbing FlightAware ADS-B (KSNC)
Wed 10:08:18 PM 41.1434 -73.2993 27° Northeast 435 501 18,400 1,742 Climbing FlightAware ADS-B (KSNC)
Wed 10:08:48 PM 41.1955 -73.2640 27° Northeast 441 507 19,200 1,612 Climbing FlightAware ADS-B (KSNC)
Wed 10:09:25 PM 41.2669 -73.2156 27° Northeast 447 514 20,200 1,612 Climbing FlightAware ADS-B (KSNC)
Wed 10:09:55 PM 41.3234 -73.1777 27° Northeast 453 521 21,000 1,479 Climbing FlightAware ADS-B (KSNC)
Wed 10:10:38 PM 41.3950 -73.1050 37° Northeast 466 536 22,000 1,378 Climbing FlightAware ADS-B (KSNC)
Wed 10:11:09 PM 41.4306 -73.0314 57° Northeast 473 544 22,700 1,279 Climbing FlightAware ADS-B (KSNC)
Wed 10:11:39 PM 41.4641 -72.9555 59° Northeast 479 551 23,300 1,180 Climbing FlightAware ADS-B (KSNC)
Wed 10:12:10 PM 41.4988 -72.8756 60° Northeast 486 559 23,900 1,180 Climbing FlightAware ADS-B (KSNC)
Wed 10:12:40 PM 41.5329 -72.7973 60° Northeast 492 566 24,500 1,183 Climbing FlightAware ADS-B (KSNC)
Wed 10:13:21 PM 41.5834 -72.6893 58° Northeast 494 568 25,300 1,183 Climbing FlightAware ADS-B (KSNC)
Wed 10:13:51 PM 41.6300 -72.6218 47° Northeast 494 568 25,900 1,100 Climbing FlightAware ADS-B (KSNC)
Wed 10:14:21 PM 41.6808 -72.5602 42° Northeast 499 574 26,400 900 Climbing FlightAware ADS-B (KSNC)
Wed 10:14:51 PM 41.7315 -72.4995 42° Northeast 505 581 26,800 1,000 Climbing FlightAware ADS-B (KSNC)
Wed 10:15:21 PM 41.7838 -72.4364 42° Northeast 507 583 27,400 1,000 Climbing FlightAware ADS-B (KSNC)
Wed 10:15:51 PM 41.8376 -72.3708 42° Northeast 511 588 27,800 968 Climbing FlightAware ADS-B (KSNC)
Wed 10:16:23 PM 41.8933 -72.3024 42° Northeast 513 590 28,400 1,048 Climbing FlightAware ADS-B (KSNC)
Wed 10:16:54 PM 41.9467 -72.2380 42° Northeast 514 592 28,900 1,180 Climbing FlightAware ADS-B (KSNC)
Wed 10:17:24 PM 42.0002 -72.1738 42° Northeast 510 587 29,600 1,279 Climbing FlightAware ADS-B (KSNC)
Wed 10:17:55 PM 42.0545 -72.1053 43° Northeast 510 587 30,200 984 Climbing FlightAware ADS-B (KSNC)
Wed 10:18:25 PM 42.1070 -72.0411 42° Northeast 512 589 30,600 774 Climbing FlightAware ADS-B (KSNC)
Wed 10:18:57 PM 42.1636 -71.9721 42° Northeast 513 590 31,000 387 Climbing FlightAware ADS-B (KSNC)
Wed 10:19:27 PM 42.2160 -71.9070 43° Northeast 509 586 31,000  Level FlightAware ADS-B
Wed 10:19:38 PM 42.2328 -71.8859 43° Northeast 508 585 31,000  Level FlightAware ADS-B (KSNC)
Wed 10:20:24 PM 42.3132 -71.7877 42° Northeast 505 581 31,000  Level FlightAware ADS-B (KSNC)
Wed 10:21:09 PM 42.3862 -71.6957 43° Northeast 507 583 31,000  Level FlightAware ADS-B (KSNC)
Wed 10:21:47 PM 42.4560 -71.6100 42° Northeast 506 582 31,000  Level FlightAware ADS-B
Wed 10:21:55 PM 42.4701 -71.5902 46° Northeast 506 582 31,000  Level FlightAware ADS-B (EPKK / KRK)
Wed 10:22:25 PM 42.5202 -71.5280 43° Northeast 505 581 31,000  Level FlightAware ADS-B (EPKK / KRK)
Wed 10:22:57 PM 42.5755 -71.4592 42° Northeast 504 580 31,000  Level FlightAware ADS-B (EPKK / KRK)
Wed 10:23:27 PM 42.6275 -71.3926 43° Northeast 503 579 31,000  Level FlightAware ADS-B (EPKK / KRK)
Wed 10:24:12 PM 42.7026 -71.2981 43° Northeast 502 578 31,000  Level FlightAware ADS-B (EPKK / KRK)
Wed 10:24:42 PM 42.7536 -71.2336 43° Northeast 501 577 31,000  Level FlightAware ADS-B (EPKK / KRK)
Wed 10:25:12 PM 42.8063 -71.1671 43° Northeast 499 574 31,000  Level FlightAware ADS-B (EPKK / KRK)
Wed 10:25:43 PM 42.8564 -71.1029 43° Northeast 496 571 31,000  Level FlightAware ADS-B (EPKK / KRK)
Wed 10:26:27 PM 42.9296 -71.0092 43° Northeast 494 568 31,000  Level FlightAware ADS-B (EPKK / KRK)
Wed 10:26:58 PM 42.9812 -70.9431 43° Northeast 493 567 31,000  Level FlightAware ADS-B (EPKK / KRK)
Wed 10:27:42 PM 43.0563 -70.8473 43° Northeast 492 566 31,000  Level FlightAware ADS-B (EPKK / KRK)
Wed 10:28:13 PM 43.1068 -70.7816 44° Northeast 491 565 31,000  Level FlightAware ADS-B (EPKK / KRK)
Wed 10:28:50 PM 43.1690 -70.7030 43° Northeast 489 563 31,000  Level FlightAware ADS-B
Wed 10:28:54 PM 43.1712 -70.6987 55° Northeast 490 564 31,000  Level FlightAware ADS-B (EPKK / KRK)
Wed 10:29:38 PM 43.2434 -70.6069 43° Northeast 490 564 31,000  Level FlightAware ADS-B (EPKK / KRK)
Wed 10:30:33 PM 43.3360 -70.4850 44° Northeast 488 562 31,000  Level FlightAware ADS-B
Wed 10:31:09 PM 43.3960 -70.4070 43° Northeast 486 559 31,000  Level FlightAware ADS-B
Wed 10:31:40 PM 43.4460 -70.3430 43° Northeast 485 558 31,000  Level FlightAware ADS-B
Wed 10:32:16 PM 43.5050 -70.2640 44° Northeast 484 557 31,000  Level FlightAware ADS-B
Wed 10:33:01 PM 43.5740 -70.1720 44° Northeast 477 549 31,000  Level FlightAware ADS-B
Wed 10:33:31 PM 43.6250 -70.1060 43° Northeast 476 548 31,000  Level FlightAware ADS-B
Wed 10:34:06 PM 43.6800 -70.0340 43° Northeast 475 547 31,000  Level FlightAware ADS-B
Wed 10:34:46 PM 43.7450 -69.9470 44° Northeast 475 547 31,000  Level FlightAware ADS-B
Wed 10:35:21 PM 43.8010 -69.8720 44° Northeast 475 547 31,000  Level FlightAware ADS-B
Wed 10:35:51 PM 43.8490 -69.8080 44° Northeast 476 548 31,000  Level FlightAware ADS-B
Wed 10:36:31 PM 43.9100 -69.7260 44° Northeast 476 548 31,000  Level FlightAware ADS-B
Wed 10:37:17 PM 43.9740 -69.6410 44° Northeast 475 547 31,000  Level FlightAware ADS-B
Wed 10:37:54 PM 44.0460 -69.5450 44° Northeast 475 547 31,000  Level FlightAware ADS-B
Wed 10:38:28 PM 44.1000 -69.4730 44° Northeast 471 542 31,000  Level FlightAware ADS-B
Wed 10:39:04 PM 44.1560 -69.3970 44° Northeast 469 540 31,000  Level FlightAware ADS-B
Wed 10:39:39 PM 44.2090 -69.3230 45° Northeast 466 536 31,000  Level FlightAware ADS-B
Wed 10:40:13 PM 44.2610 -69.2520 44° Northeast 465 535 31,000  Level FlightAware ADS-B
Wed 10:40:45 PM 44.3110 -69.1850 44° Northeast 463 533 31,000  Level FlightAware ADS-B
Wed 10:41:24 PM 44.3720 -69.1010 45° Northeast 463 533 31,000  Level FlightAware ADS-B
Wed 10:41:57 PM 44.4210 -69.0340 44° Northeast 462 532 31,000  Level FlightAware ADS-B
Wed 10:42:34 PM 44.4780 -68.9560 44° Northeast 464 534 31,000  Level FlightAware ADS-B
Wed 10:43:05 PM 44.5240 -68.8910 45° Northeast 464 534 31,000  Level FlightAware ADS-B
Wed 10:43:46 PM 44.5870 -68.8040 45° Northeast 463 533 31,000  Level FlightAware ADS-B
Wed 10:44:18 PM 44.6360 -68.7360 45° Northeast 465 535 31,000  Level FlightAware ADS-B
Wed 10:44:54 PM 44.6910 -68.6600 44° Northeast 465 535 31,000  Level FlightAware ADS-B
Wed 10:45:29 PM 44.7450 -68.5830 45° Northeast 463 533 31,000  Level FlightAware ADS-B
Wed 10:46:06 PM 44.8010 -68.5070 44° Northeast 461 531 31,000  Level FlightAware ADS-B
Wed 10:46:37 PM 44.8470 -68.4410 45° Northeast 459 528 31,000  Level FlightAware ADS-B
Wed 10:47:13 PM 44.9010 -68.3650 45° Northeast 457 526 31,000  Level FlightAware ADS-B
Wed 10:47:25 PM 44.9190 -68.3400 45° Northeast 455 524 31,000  Level FlightAware ADS-B
Wed 10:47:41 PM 44.9440 -68.3040 46° Northeast 446 513 31,000  Level FlightAware ADS-B
Wed 10:47:49 PM 44.9550 -68.2900 42° Northeast 442 509 31,000  Level FlightAware ADS-B
Wed 10:47:58 PM 44.9670 -68.2720 47° Northeast 440 506 31,000  Level FlightAware ADS-B
Wed 10:48:01 PM 44.9730 -68.2650 40° Northeast 439 505 31,000  Level FlightAware ADS-B
Wed 10:48:09 PM 44.9840 -68.2470 49° Northeast 436 502 31,000  Level FlightAware ADS-B
Wed 10:48:45 PM 45.0350 -68.1770 44° Northeast 434 499 31,000  Level FlightAware ADS-B
Wed 10:48:53 PM 45.0470 -68.1590 47° Northeast 433 498 31,000  Level FlightAware ADS-B
Wed 10:49:26 PM 45.0930 -68.0950 44° Northeast 432 497 31,000  Level FlightAware ADS-B
Wed 10:49:34 PM 45.1040 -68.0790 46° Northeast 431 496 31,000  Level FlightAware ADS-B
Wed 10:50:01 PM 45.1420 -68.0230 46° Northeast 429 494 31,000  Level FlightAware ADS-B
Wed 10:50:38 PM 45.1930 -67.9510 45° Northeast 429 494 31,000  Level FlightAware ADS-B
Wed 10:51:11 PM 45.2390 -67.8850 45° Northeast 423 487 31,000  Level FlightAware ADS-B
Wed 10:51:52 PM 45.2950 -67.8050 45° Northeast 422 486 31,000  Level FlightAware ADS-B
Wed 10:52:26 PM 45.3430 -67.7350 46° Northeast 422 486 31,000  Level FlightAware ADS-B
Wed 10:53:06 PM 45.3960 -67.6530 47° Northeast 425 489 31,000  Level FlightAware ADS-B
Wed 10:53:36 PM 45.4360 -67.5880 49° Northeast 424 488 31,000  Level FlightAware ADS-B
Wed 10:54:12 PM 45.4840 -67.5140 47° Northeast 432 497 31,000  Level FlightAware ADS-B
Wed 10:54:51 PM 45.5380 -67.4290 48° Northeast 435 501 31,000  Level FlightAware ADS-B
Wed 10:55:27 PM 45.5860 -67.3530 48° Northeast 435 501 31,000  Level FlightAware ADS-B
Wed 10:55:56 PM 45.6250 -67.2910 48° Northeast 439 505 31,000  Level FlightAware ADS-B
Wed 10:56:32 PM 45.6740 -67.2130 48° Northeast 439 505 31,000  Level FlightAware ADS-B
Wed 10:57:11 PM 45.7270 -67.1260 49° Northeast 437 503 31,000  Level FlightAware ADS-B
Wed 10:57:47 PM 45.7750 -67.0510 47° Northeast 438 504 31,000  Level FlightAware ADS-B
Wed 10:58:16 PM 45.8150 -66.9860 49° Northeast 440 506 31,000  Level FlightAware ADS-B
Wed 10:58:52 PM 45.8600 -66.9140 48° Northeast 440 506 31,000  Level FlightAware ADS-B
Wed 10:59:31 PM 45.9140 -66.8290 48° Northeast 439 505 31,000  Level FlightAware ADS-B
Wed 11:00:02 PM 45.9580 -66.7570 49° Northeast 436 502 31,000  Level FlightAware ADS-B
Wed 11:00:43 PM 46.0140 -66.6660 48° Northeast 437 503 31,000  Level FlightAware ADS-B
Wed 11:01:28 PM 46.0690 -66.5770 48° Northeast 437 503 31,000  Level FlightAware ADS-B
Wed 11:02:02 PM 46.1190 -66.4930 49° Northeast 439 505 31,000  Level FlightAware ADS-B
Wed 11:02:40 PM 46.1630 -66.4230 48° Northeast 439 505 31,000  Level FlightAware ADS-B
Wed 11:03:17 PM 46.2060 -66.3540 48° Northeast 439 505 31,000  Level FlightAware ADS-B
Wed 11:03:53 PM 46.2470 -66.2880 48° Northeast 439 505 31,000  Level FlightAware ADS-B
Wed 11:04:29 PM 46.2890 -66.2210 48° Northeast 439 505 31,000  Level FlightAware ADS-B
Wed 11:05:05 PM 46.3300 -66.1540 48° Northeast 439 505 31,000  Level FlightAware ADS-B
Wed 11:05:41 PM 46.3720 -66.0870 48° Northeast 439 505 31,000  Level FlightAware ADS-B
Wed 11:06:18 PM 46.4150 -66.0180 48° Northeast 439 505 31,000  Level FlightAware ADS-B
Wed 11:06:55 PM 46.4570 -65.9490 49° Northeast 439 505 31,000  Level FlightAware ADS-B
Wed 11:07:31 PM 46.4990 -65.8820 48° Northeast 439 505 31,000  Level FlightAware ADS-B
Wed 11:08:05 PM 46.5380 -65.8190 48° Northeast 439 505 31,000  Level FlightAware ADS-B
Wed 11:08:41 PM 46.5800 -65.7520 48° Northeast 439 505 31,000  Level FlightAware ADS-B
Wed 11:09:17 PM 46.6210 -65.6840 49° Northeast 439 505 31,000  Level FlightAware ADS-B
Wed 11:09:53 PM 46.6630 -65.6170 48° Northeast 439 505 31,000  Level FlightAware ADS-B
Wed 11:10:29 PM 46.7050 -65.5500 48° Northeast 439 505 31,000  Level FlightAware ADS-B
Wed 11:11:18 PM 46.7610 -65.4580 48° Northeast 439 505 31,000  Level FlightAware ADS-B
Wed 11:11:54 PM 46.8030 -65.3900 48° Northeast 439 505 31,000  Level FlightAware ADS-B
Wed 11:12:59 PM 46.9833 -65.0167 48° Northeast 440 506 31,000  Level Moncton Center
Wed 11:13:59 PM 47.0667 -64.8667 51° Northeast 440 506 31,000  Level Moncton Center
Wed 11:14:59 PM 47.1333 -64.7333 54° Northeast 450 518 31,000  Level Moncton Center
Wed 11:15:59 PM 47.2333 -64.6000 42° Northeast 450 518 31,000  Level Moncton Center
Wed 11:16:59 PM 47.3000 -64.4500 57° Northeast 450 518 31,000  Level Moncton Center
Wed 11:17:59 PM 47.3833 -64.3000 51° Northeast 450 518 31,000  Level Moncton Center
Wed 11:18:59 PM 47.4667 -64.1667 47° Northeast 450 518 31,000  Level Moncton Center
Wed 11:19:59 PM 47.5333 -64.0333 53° Northeast 450 518 31,000  Level Moncton Center
Wed 11:20:59 PM 47.6167 -63.8833 50° Northeast 450 518 31,000  Level Moncton Center
Wed 11:21:59 PM 47.7000 -63.7500 47° Northeast 450 518 31,000  Level Moncton Center
Wed 11:22:59 PM 47.7833 -63.6000 50° Northeast 450 518 31,000  Level Moncton Center
Wed 11:23:59 PM 47.8667 -63.4500 50° Northeast 450 518 31,000  Level Moncton Center
Wed 11:24:59 PM 47.9500 -63.3000 50° Northeast 450 518 31,000  Level Moncton Center
Wed 11:25:59 PM 48.0333 -63.1500 50° Northeast 450 518 31,000  Level Moncton Center
Wed 11:26:59 PM 48.1167 -63.0000 50° Northeast 450 518 31,000  Level Moncton Center
Wed 11:27:59 PM 48.1833 -62.8667 53° Northeast 450 518 31,000  Level Moncton Center
Wed 11:28:59 PM 48.2500 -62.7167 56° Northeast 450 518 31,000  Level Moncton Center
Wed 11:29:59 PM 48.3333 -62.5667 50° Northeast 450 518 31,000  Level Moncton Center
Wed 11:30:59 PM 48.4167 -62.4000 53° Northeast 460 529 31,000  Level Moncton Center
Wed 11:31:42 PM 48.4667 -62.3167 48° Northeast 450 518 31,000  Level Gander Center
Wed 11:32:42 PM 48.5500 -62.1667 50° Northeast 450 518 31,000  Level Gander Center
Wed 11:33:42 PM 48.6333 -62.0167 50° Northeast 460 529 31,000  Level Gander Center
Wed 11:34:42 PM 48.7000 -61.8333 61° Northeast 450 518 31,000  Level Gander Center
Wed 11:35:42 PM 48.7833 -61.7167 43° Northeast 460 529 31,000  Level Gander Center
Wed 11:36:42 PM 48.8667 -61.5333 55° Northeast 460 529 31,000  Level Gander Center
Wed 11:37:42 PM 48.9333 -61.3833 56° Northeast 460 529 31,000  Level Gander Center
Wed 11:38:42 PM 49.0167 -61.2333 50° Northeast 460 529 31,000 350 Level Gander Center
Wed 11:39:42 PM 49.1000 -61.0833 50° Northeast 460 529 31,700 900 Climbing Gander Center
Wed 11:40:42 PM 49.1667 -60.9167 58° Northeast 460 529 32,800 850 Climbing Gander Center
Wed 11:41:42 PM 49.2500 -60.7667 50° Northeast 460 529 33,400 550 Climbing Gander Center
Wed 11:42:42 PM 49.3333 -60.6167 50° Northeast 460 529 33,900 92 Climbing Gander Center
Wed 11:48:12 PM 49.7720 -59.7390 50° Northeast 481 554 34,000 16 Climbing FlightAware ADS-B
Wed 11:48:52 PM 49.8250 -59.6280 53° Northeast 482 555 34,000  Level FlightAware ADS-B
Wed 11:49:32 PM 49.8740 -59.5250 54° Northeast 482 555 34,000  Level FlightAware ADS-B
Wed 11:50:08 PM 49.9150 -59.4400 53° Northeast 482 555 34,000  Level FlightAware ADS-B
Wed 11:50:44 PM 49.9560 -59.3550 53° Northeast 482 555 34,000  Level FlightAware ADS-B
Wed 11:51:20 PM 49.9970 -59.2710 53° Northeast 482 555 34,000  Level FlightAware ADS-B
Wed 11:51:56 PM 50.0380 -59.1860 53° Northeast 482 555 34,000  Level FlightAware ADS-B
Wed 11:52:32 PM 50.0790 -59.1010 53° Northeast 482 555 34,000  Level FlightAware ADS-B
Wed 11:53:08 PM 50.1200 -59.0160 53° Northeast 482 555 34,000  Level FlightAware ADS-B
Wed 11:53:12 PM 50.1580 -58.8850 66° East 34,000  Level FlightAware ADS-B
Wed 11:54:02 PM 50.2200 -58.7380 57° Northeast 484 557 34,000  Level FlightAware ADS-B
Wed 11:54:37 PM 50.2620 -58.6350 57° Northeast 484 557 34,000  Level FlightAware ADS-B
Wed 11:55:12 PM 50.3020 -58.5380 57° Northeast 486 559 34,000  Level FlightAware ADS-B
Wed 11:55:47 PM 50.3480 -58.4260 57° Northeast 486 559 34,000  Level FlightAware ADS-B
Wed 11:56:22 PM 50.3850 -58.3340 58° Northeast 487 560 34,000  Level FlightAware ADS-B
Wed 11:56:57 PM 50.4290 -58.2270 57° Northeast 488 562 34,000  Level FlightAware ADS-B
Wed 11:57:32 PM 50.4740 -58.1150 58° Northeast 491 565 34,000  Level FlightAware ADS-B
Wed 11:58:07 PM 50.5150 -58.0160 57° Northeast 493 567 34,000  Level FlightAware ADS-B
Wed 11:59:00 PM 50.5740 -57.8670 58° Northeast 496 571 34,000  Level FlightAware ADS-B
Wed 11:59:36 PM 50.6120 -57.7750 57° Northeast 496 571 34,000  Level FlightAware ADS-B
Thu 12:00:12 AM 50.6510 -57.6820 56° Northeast 496 571 34,000  Level FlightAware ADS-B
Thu 12:00:50 AM 50.6910 -57.5840 57° Northeast 496 571 34,000  Level FlightAware ADS-B
Thu 12:01:28 AM 50.7310 -57.4850 57° Northeast 496 571 34,000  Level FlightAware ADS-B
Thu 12:02:04 AM 50.7700 -57.3920 56° Northeast 496 571 34,000  Level FlightAware ADS-B
Thu 12:02:42 AM 50.8500 -57.1167 56° Northeast 510 587 34,000  Level Gander Center
Thu 12:03:42 AM 50.9167 -56.9333 60° Northeast 500 575 34,000  Level Gander Center
Thu 12:04:42 AM 50.9833 -56.7333 62° Northeast 510 587 34,000  Level Gander Center
Thu 12:05:42 AM 51.0667 -56.5500 54° Northeast 510 587 34,000  Level Gander Center
Thu 12:06:42 AM 51.1333 -56.3500 62° Northeast 510 587 34,000  Level Gander Center
Thu 12:07:42 AM 51.2167 -56.1500 56° Northeast 520 598 34,000  Level Gander Center
Thu 12:08:42 AM 51.2833 -55.9667 60° Northeast 520 598 34,000  Level Gander Center
Thu 12:09:42 AM 51.3667 -55.7667 56° Northeast 530 610 34,000  Level Gander Center
Thu 12:10:42 AM 51.4333 -55.5667 62° Northeast 520 598 34,000  Level Gander Center
Thu 12:11:42 AM 51.5000 -55.3333 65° Northeast 520 598 34,000  Level Gander Center
Thu 12:12:42 AM 51.5833 -55.1500 54° Northeast 520 598 34,000  Level Gander Center
Thu 12:13:42 AM 51.6500 -54.9500 62° Northeast 520 598 34,000  Level Gander Center
Thu 12:14:42 AM 51.7333 -54.7500 56° Northeast 520 598 34,000  Level Gander Center
Thu 12:15:42 AM 51.8000 -54.5500 62° Northeast 520 598 34,000  Level Gander Center
Thu 12:16:42 AM 51.8500 -54.3500 68° East 510 587 34,000  Level Gander Center
Thu 12:17:42 AM 51.9333 -54.1500 56° Northeast 510 587 34,000  Level Gander Center
Thu 12:18:42 AM 52.0000 -53.9333 63° Northeast 510 587 34,000  Level Gander Center
Thu 12:19:42 AM 52.0667 -53.7333 61° Northeast 510 587 34,000  Level Gander Center
Thu 12:20:42 AM 52.1333 -53.5333 61° Northeast 510 587 34,000  Level Gander Center
Thu 12:21:42 AM 52.2167 -53.3333 56° Northeast 510 587 34,000  Level Gander Center
Thu 12:22:42 AM 52.2667 -53.1000 71° East 510 587 34,000  Level Gander Center
Thu 12:23:42 AM 52.3167 -52.9000 68° East 520 598 34,000  Level Gander Center
Thu 12:24:42 AM 52.3667 -52.6667 71° East 510 587 34,000  Level Gander Center
Thu 12:25:42 AM 52.4167 -52.4667 68° East 510 587 34,000  Level Gander Center
Thu 12:26:42 AM 52.4667 -52.2333 71° East 510 587 34,000  Level Gander Center
Thu 12:27:42 AM 52.5167 -52.0000 71° East 510 587 34,000  Level Gander Center
Thu 12:28:42 AM 52.5667 -51.8000 68° East 520 598 34,000  Level Gander Center
Thu 12:29:28 AM 52.6000 -51.6500 70° East 300 345 34,000  Level Gander Center
Thu 12:30:28 AM 52.6500 -51.4167 70° East 500 575 34,000  Level Gander Center
Thu 12:31:28 AM 52.7000 -51.2167 68° East 530 610 34,000  Level Gander Center
Thu 12:32:28 AM 52.7500 -50.9833 70° East 520 598 34,000  Level Gander Center
Thu 12:33:28 AM 52.8167 -50.7500 65° Northeast 530 610 34,000  Level Gander Center
Thu 12:34:28 AM 52.8500 -50.5167 77° East 530 610 34,000  Level Gander Center
Thu 12:35:28 AM 52.9167 -50.2667 66° East 530 610 34,000  Level Gander Center
Thu 12:36:28 AM 52.9500 -50.0333 77° East 540 621 34,000  Level Gander Center
Thu 12:38:00 AM 53.0136 -49.6864 59° Northeast  Level Estimated
Thu 12:45:00 AM 53.5312 -48.2620 58° Northeast  Level FlightAware Approximate
Thu 12:46:00 AM 53.6038 -48.0557 59° Northeast  Level FlightAware Approximate
Thu 12:47:00 AM 53.6760 -47.8487 59° Northeast  Level FlightAware Approximate
Thu 12:48:00 AM 53.7478 -47.6410 60° Northeast  Level FlightAware Approximate
Thu 12:49:00 AM 53.8193 -47.4326 60° Northeast  Level FlightAware Approximate
Thu 12:50:00 AM 53.8904 -47.2234 60° Northeast  Level FlightAware Approximate
Thu 12:51:00 AM 53.9612 -47.0136 60° Northeast  Level FlightAware Approximate
Thu 12:52:00 AM 54.0316 -46.8030 60° Northeast  Level FlightAware Approximate
Thu 12:53:00 AM 54.1016 -46.5917 60° Northeast  Level FlightAware Approximate
Thu 12:54:00 AM 54.1712 -46.3797 61° Northeast  Level FlightAware Approximate
Thu 12:55:00 AM 54.2405 -46.1670 61° Northeast  Level FlightAware Approximate
Thu 12:56:00 AM 54.3094 -45.9536 61° Northeast  Level FlightAware Approximate
Thu 12:57:00 AM 54.3779 -45.7395 61° Northeast  Level FlightAware Approximate
Thu 12:58:00 AM 54.4460 -45.5247 61° Northeast  Level FlightAware Approximate
Thu 12:59:00 AM 54.5138 -45.3091 61° Northeast  Level FlightAware Approximate
Thu 01:00:00 AM 54.5811 -45.0928 62° Northeast  Level FlightAware Approximate
Thu 01:01:00 AM 54.6481 -44.8758 62° Northeast  Level FlightAware Approximate
Thu 01:02:00 AM 54.7147 -44.6581 62° Northeast  Level FlightAware Approximate
Thu 01:03:00 AM 54.7809 -44.4397 62° Northeast  Level FlightAware Approximate
Thu 01:04:00 AM 54.8467 -44.2206 62° Northeast  Level FlightAware Approximate
Thu 01:05:00 AM 54.9121 -44.0008 63° Northeast  Level FlightAware Approximate
Thu 01:06:00 AM 54.9771 -43.7802 63° Northeast  Level FlightAware Approximate
Thu 01:07:00 AM 55.0418 -43.5589 63° Northeast  Level FlightAware Approximate
Thu 01:08:00 AM 55.1060 -43.3369 63° Northeast  Level FlightAware Approximate
Thu 01:09:00 AM 55.1698 -43.1143 63° Northeast  Level FlightAware Approximate
Thu 01:10:00 AM 55.2332 -42.8909 63° Northeast  Level FlightAware Approximate
Thu 01:11:00 AM 55.2962 -42.6667 64° Northeast  Level FlightAware Approximate
Thu 01:12:00 AM 55.3587 -42.4419 64° Northeast  Level FlightAware Approximate
Thu 01:13:00 AM 55.4209 -42.2164 64° Northeast  Level FlightAware Approximate
Thu 01:14:00 AM 55.4827 -41.9901 64° Northeast  Level FlightAware Approximate
Thu 01:15:00 AM 55.5440 -41.7632 64° Northeast  Level FlightAware Approximate
Thu 01:16:00 AM 55.6049 -41.5355 65° Northeast  Level FlightAware Approximate
Thu 01:17:00 AM 55.6654 -41.3071 65° Northeast  Level FlightAware Approximate
Thu 01:18:00 AM 55.7254 -41.0781 65° Northeast  Level FlightAware Approximate
Thu 01:19:00 AM 55.7851 -40.8483 65° Northeast  Level FlightAware Approximate
Thu 01:20:00 AM 55.8443 -40.6178 65° Northeast  Level FlightAware Approximate
Thu 01:21:00 AM 55.9031 -40.3866 66° East  Level FlightAware Approximate
Thu 01:22:00 AM 55.9614 -40.1548 66° East  Level FlightAware Approximate
Thu 01:23:00 AM 55.9810 -39.9027 76° East  Level Estimated
Thu 01:24:00 AM 56.0168 -39.6563 75° East  Level FlightAware Approximate
Thu 01:25:00 AM 56.0521 -39.4094 76° East  Level FlightAware Approximate
Thu 01:26:00 AM 56.0869 -39.1620 76° East  Level FlightAware Approximate
Thu 01:27:00 AM 56.1212 -38.9142 76° East  Level FlightAware Approximate
Thu 01:28:00 AM 56.1550 -38.6660 76° East  Level FlightAware Approximate
Thu 01:29:00 AM 56.1884 -38.4174 76° East  Level FlightAware Approximate
Thu 01:30:00 AM 56.2212 -38.1683 77° East  Level FlightAware Approximate
Thu 01:31:00 AM 56.2535 -37.9187 77° East  Level FlightAware Approximate
Thu 01:32:00 AM 56.2853 -37.6688 77° East  Level FlightAware Approximate
Thu 01:33:00 AM 56.3166 -37.4184 77° East  Level FlightAware Approximate
Thu 01:34:00 AM 56.3475 -37.1677 77° East  Level FlightAware Approximate
Thu 01:35:00 AM 56.3778 -36.9165 78° East  Level FlightAware Approximate
Thu 01:36:00 AM 56.4076 -36.6650 78° East  Level FlightAware Approximate
Thu 01:37:00 AM 56.4368 -36.4130 78° East  Level FlightAware Approximate
Thu 01:38:00 AM 56.4656 -36.1607 78° East  Level FlightAware Approximate
Thu 01:39:00 AM 56.4939 -35.9080 78° East  Level FlightAware Approximate
Thu 01:40:00 AM 56.5216 -35.6549 79° East  Level FlightAware Approximate
Thu 01:41:00 AM 56.5489 -35.4014 79° East  Level FlightAware Approximate
Thu 01:42:00 AM 56.5756 -35.1476 79° East  Level FlightAware Approximate
Thu 01:43:00 AM 56.6018 -34.8934 79° East  Level FlightAware Approximate
Thu 01:44:00 AM 56.6274 -34.6389 80° East  Level FlightAware Approximate
Thu 01:45:00 AM 56.6526 -34.3841 80° East  Level FlightAware Approximate
Thu 01:46:00 AM 56.6772 -34.1289 80° East  Level FlightAware Approximate
Thu 01:47:00 AM 56.7014 -33.8733 80° East  Level FlightAware Approximate
Thu 01:48:00 AM 56.7250 -33.6175 80° East  Level FlightAware Approximate
Thu 01:49:00 AM 56.7480 -33.3613 81° East  Level FlightAware Approximate
Thu 01:50:00 AM 56.7706 -33.1048 81° East  Level FlightAware Approximate
Thu 01:51:00 AM 56.7926 -32.8480 81° East  Level FlightAware Approximate
Thu 01:52:00 AM 56.8141 -32.5909 81° East  Level FlightAware Approximate
Thu 01:53:00 AM 56.8350 -32.3336 81° East  Level FlightAware Approximate
Thu 01:54:00 AM 56.8555 -32.0759 82° East  Level FlightAware Approximate
Thu 01:55:00 AM 56.8754 -31.8180 82° East  Level FlightAware Approximate
Thu 01:56:00 AM 56.8947 -31.5597 82° East  Level FlightAware Approximate
Thu 01:57:00 AM 56.9136 -31.3013 82° East  Level FlightAware Approximate
Thu 01:58:00 AM 56.9319 -31.0425 83° East  Level FlightAware Approximate
Thu 01:59:00 AM 56.9496 -30.7836 83° East  Level FlightAware Approximate
Thu 02:00:00 AM 56.9668 -30.5243 83° East  Level FlightAware Approximate
Thu 02:01:00 AM 56.9835 -30.2649 83° East  Level FlightAware Approximate
Thu 02:02:00 AM 56.9814 -30.0036 96° East  Level Estimated
Thu 02:03:00 AM 56.9665 -29.7437 96° East  Level FlightAware Approximate
Thu 02:04:00 AM 56.9511 -29.4841 96° East  Level FlightAware Approximate
Thu 02:05:00 AM 56.9352 -29.2247 96° East  Level FlightAware Approximate
Thu 02:06:00 AM 56.9188 -28.9655 97° East  Level FlightAware Approximate
Thu 02:07:00 AM 56.9018 -28.7066 97° East  Level FlightAware Approximate
Thu 02:08:00 AM 56.8842 -28.4479 97° East  Level FlightAware Approximate
Thu 02:09:00 AM 56.8662 -28.1894 97° East  Level FlightAware Approximate
Thu 02:09:00 AM 57.0000 -30.0000 96° East 530 610 34,000  Level ETMS Enhanced Traffic Management System
Thu 02:10:00 AM 56.8476 -27.9312 97° East  Level FlightAware Approximate
Thu 02:11:00 AM 56.8284 -27.6733 98° East  Level FlightAware Approximate
Thu 02:12:00 AM 56.8088 -27.4156 98° East  Level FlightAware Approximate
Thu 02:13:00 AM 56.7886 -27.1582 98° East  Level FlightAware Approximate
Thu 02:14:00 AM 56.7679 -26.9011 98° East  Level FlightAware Approximate
Thu 02:15:00 AM 56.5465 -24.4075 101° East 530 610 34,000  Level FlightAware Transoceanic
Thu 02:16:00 AM 56.5188 -24.1449 101° East 530 610 34,000  Level FlightAware Transoceanic
Thu 02:17:00 AM 56.4904 -23.8826 101° East 530 610 34,000  Level FlightAware Transoceanic
Thu 02:18:00 AM 56.4615 -23.6208 101° East 530 610 34,000  Level FlightAware Transoceanic
Thu 02:19:00 AM 56.4321 -23.3594 102° East 530 610 34,000  Level FlightAware Transoceanic
Thu 02:20:00 AM 56.4021 -23.0983 102° East 530 610 34,000  Level FlightAware Transoceanic
Thu 02:21:00 AM 56.3716 -22.8377 102° East 530 610 34,000  Level FlightAware Transoceanic
Thu 02:22:00 AM 56.3405 -22.5775 102° East 530 610 34,000  Level FlightAware Transoceanic
Thu 02:23:00 AM 56.3089 -22.3177 102° East 530 610 34,000  Level FlightAware Transoceanic
Thu 02:24:00 AM 56.2767 -22.0584 103° East 530 610 34,000  Level FlightAware Transoceanic
Thu 02:25:00 AM 56.2440 -21.7995 103° East 530 610 34,000  Level FlightAware Transoceanic
Thu 02:26:00 AM 56.2107 -21.5410 103° East 530 610 34,000  Level FlightAware Transoceanic
Thu 02:27:00 AM 56.1769 -21.2830 103° East 530 610 34,000  Level FlightAware Transoceanic
Thu 02:28:00 AM 56.1426 -21.0255 104° East 530 610 34,000  Level FlightAware Transoceanic
Thu 02:29:00 AM 56.1078 -20.7684 104° East 530 610 34,000  Level FlightAware Transoceanic
Thu 02:30:00 AM 56.0724 -20.5118 104° East 530 610 34,000  Level FlightAware Transoceanic
Thu 02:31:00 AM 56.0364 -20.2557 104° East 530 610 34,000  Level FlightAware Transoceanic
Thu 02:32:00 AM 56.0013 -20.0088 104° East  Level FlightAware Approximate
Thu 02:33:00 AM 55.9657 -19.7623 104° East  Level FlightAware Approximate
Thu 02:34:00 AM 55.9583 -19.7757 108° East  Level FlightAware Approximate
Thu 02:35:00 AM 55.9130 -19.5348 108° East  Level FlightAware Approximate
Thu 02:36:00 AM 55.8671 -19.2944 109° East  Level FlightAware Approximate
Thu 02:37:00 AM 55.8209 -19.0545 109° East  Level FlightAware Approximate
Thu 02:38:00 AM 55.7741 -18.8153 109° East  Level FlightAware Approximate
Thu 02:39:00 AM 55.7269 -18.5766 109° East  Level FlightAware Approximate
Thu 02:40:00 AM 55.6792 -18.3385 109° East  Level FlightAware Approximate
Thu 02:41:00 AM 55.6311 -18.1010 110° East  Level FlightAware Approximate
Thu 02:42:00 AM 55.5825 -17.8640 110° East  Level FlightAware Approximate
Thu 02:43:00 AM 55.5334 -17.6277 110° East  Level FlightAware Approximate
Thu 02:44:00 AM 55.4839 -17.3919 110° East  Level FlightAware Approximate
Thu 02:45:00 AM 55.4339 -17.1567 110° East  Level FlightAware Approximate
Thu 02:46:00 AM 55.3835 -16.9222 111° Southeast  Level FlightAware Approximate
Thu 02:47:00 AM 55.3327 -16.6882 111° Southeast  Level FlightAware Approximate
Thu 02:48:00 AM 55.2814 -16.4548 111° Southeast  Level FlightAware Approximate
Thu 02:49:00 AM 55.2296 -16.2221 111° Southeast  Level FlightAware Approximate
Thu 02:50:00 AM 55.1774 -15.9899 111° Southeast  Level FlightAware Approximate
Thu 02:51:00 AM 55.1248 -15.7584 112° Southeast  Level FlightAware Approximate
Thu 02:52:00 AM 55.0717 -15.5275 112° Southeast  Level FlightAware Approximate
Thu 02:53:00 AM 55.0182 -15.2971 112° Southeast  Level FlightAware Approximate
Thu 02:54:00 AM 54.9643 -15.0674 112° Southeast  Level FlightAware Approximate
Thu 02:55:00 AM 54.9101 -14.8382 112° Southeast  Level FlightAware Approximate
Thu 02:56:00 AM 54.8570 -14.6085 112° Southeast  Level FlightAware Approximate
Thu 02:57:00 AM 54.8038 -14.3807 112° Southeast  Level FlightAware Approximate
Thu 02:58:00 AM 54.7501 -14.1535 112° Southeast  Level FlightAware Approximate
Thu 02:59:00 AM 54.6961 -13.9270 112° Southeast  Level FlightAware Approximate
Thu 03:00:00 AM 54.6416 -13.7010 113° Southeast  Level FlightAware Approximate
Thu 03:01:00 AM 54.5867 -13.4756 113° Southeast  Level FlightAware Approximate
Thu 03:01:05 AM 54.8850 -13.5900 113° Southeast 485 558 34,000  Level FlightAware ADS-B
Thu 03:01:40 AM 54.8490 -13.4640 116° Southeast 485 558 34,000  Level FlightAware ADS-B
Thu 03:02:15 AM 54.8150 -13.3410 116° Southeast 485 558 34,000  Level FlightAware ADS-B
Thu 03:02:51 AM 54.7790 -13.2140 116° Southeast 485 558 34,000  Level FlightAware ADS-B
Thu 03:03:30 AM 54.7400 -13.0780 116° Southeast 485 558 34,000  Level FlightAware ADS-B
Thu 03:04:06 AM 54.7040 -12.9560 117° Southeast 484 557 34,000  Level FlightAware ADS-B
Thu 03:04:40 AM 54.6690 -12.8340 116° Southeast 485 558 34,000  Level FlightAware ADS-B
Thu 03:05:11 AM 54.6380 -12.7290 117° Southeast 484 557 34,000 240 Level FlightAware ADS-B
Thu 03:05:55 AM 54.5930 -12.5740 117° Southeast 485 558 34,300 690 Climbing FlightAware ADS-B
Thu 03:06:38 AM 54.5510 -12.4310 117° Southeast 485 558 35,000 506 Climbing FlightAware ADS-B
Thu 03:07:18 AM 54.5080 -12.2860 117° Southeast 483 556 35,000  Level FlightAware ADS-B
Thu 03:07:48 AM 54.4780 -12.1870 118° Southeast 483 556 35,000  Level FlightAware ADS-B
Thu 03:08:23 AM 54.4410 -12.0660 118° Southeast 482 555 35,000  Level FlightAware ADS-B
Thu 03:08:58 AM 54.4050 -11.9440 117° Southeast 485 558 35,000  Level FlightAware ADS-B
Thu 03:09:38 AM 54.3630 -11.8070 118° Southeast 484 557 35,000  Level FlightAware ADS-B
Thu 03:10:08 AM 54.3330 -11.7050 117° Southeast 484 557 35,000  Level FlightAware ADS-B
Thu 03:10:48 AM 54.2910 -11.5700 118° Southeast 484 557 35,000  Level FlightAware ADS-B
Thu 03:11:26 AM 54.2540 -11.4510 118° Southeast 486 559 35,000  Level FlightAware ADS-B
Thu 03:12:03 AM 54.2120 -11.3150 118° Southeast 486 559 35,000  Level FlightAware ADS-B
Thu 03:12:38 AM 54.1750 -11.1970 118° Southeast 488 562 35,000  Level FlightAware ADS-B
Thu 03:13:13 AM 54.1380 -11.0780 118° Southeast 489 563 35,000  Level FlightAware ADS-B
Thu 03:13:54 AM 54.0970 -10.9460 118° Southeast 485 558 35,000  Level FlightAware ADS-B
Thu 03:14:28 AM 54.0590 -10.8240 118° Southeast 485 558 35,000  Level FlightAware ADS-B
Thu 03:15:03 AM 54.0210 -10.7050 118° Southeast 486 559 35,000  Level FlightAware ADS-B
Thu 03:15:38 AM 53.9830 -10.5870 119° Southeast 487 560 35,000  Level FlightAware ADS-B
Thu 03:16:13 AM 53.9450 -10.4680 118° Southeast 489 563 35,000  Level FlightAware ADS-B
Thu 03:16:48 AM 53.9070 -10.3500 119° Southeast 489 563 35,000  Level FlightAware ADS-B
Thu 03:17:23 AM 53.8680 -10.2270 118° Southeast 491 565 35,000  Level FlightAware ADS-B
Thu 03:17:58 AM 53.8300 -10.1120 119° Southeast 495 570 35,000  Level FlightAware ADS-B
Thu 03:18:33 AM 53.7910 -9.9940 119° Southeast 495 570 35,000  Level FlightAware ADS-B
Thu 03:19:08 AM 53.7520 -9.8750 119° Southeast 496 571 35,000  Level FlightAware ADS-B
Thu 03:19:35 AM 53.7659 -9.9159 300° West 496 571 35,000  Level FlightAware ADS-B
Thu 03:20:18 AM 53.6740 -9.6390 119° Southeast 496 571 35,000  Level FlightAware ADS-B
Thu 03:20:39 AM 53.6484 -9.5613 119° Southeast 497 572 35,000  Level FlightAware ADS-B
Thu 03:21:28 AM 53.5950 -9.4000 119° Southeast 497 572 35,000  Level FlightAware ADS-B
Thu 03:22:03 AM 53.5550 -9.2860 121° Southeast 497 572 35,000  Level FlightAware ADS-B
Thu 03:22:38 AM 53.5150 -9.1680 120° Southeast 498 573 35,000  Level FlightAware ADS-B
Thu 03:22:59 AM 53.4897 -9.0909 119° Southeast 499 574 35,000  Level FlightAware ADS-B
Thu 03:23:32 AM 53.4520 -8.9795 119° Southeast 496 571 35,000  Level FlightAware UK
Thu 03:23:54 AM 53.4271 -8.9068 119° Southeast 498 573 35,000  Level FlightAware ADS-B
Thu 03:24:27 AM 53.3904 -8.8001 120° Southeast 498 573 35,000  Level FlightAware ADS-B
Thu 03:24:58 AM 53.3560 -8.7000 120° Southeast 493 567 35,000  Level FlightAware ADS-B
Thu 03:25:25 AM 53.3230 -8.6068 121° Southeast 498 573 35,000  Level FlightAware ADS-B
Thu 03:26:02 AM 53.2795 -8.4799 121° Southeast 496 571 35,000  Level FlightAware UK
Thu 03:26:08 AM 53.2750 -8.4670 121° Southeast 494 568 35,000  Level FlightAware ADS-B
Thu 03:26:24 AM 53.2574 -8.4178 121° Southeast 499 574 35,000  Level FlightAware ADS-B
Thu 03:27:01 AM 53.2124 -8.2885 120° Southeast 498 573 35,000  Level FlightAware ADS-B
Thu 03:27:34 AM 53.1730 -8.1763 120° Southeast 498 573 35,000  Level FlightAware ADS-B
Thu 03:28:15 AM 53.1254 -8.0409 120° Southeast 498 573 35,000  Level FlightAware ADS-B
Thu 03:28:46 AM 53.0891 -7.9388 121° Southeast 498 573 35,000  Level FlightAware ADS-B
Thu 03:29:27 AM 53.0693 -7.8829 120° Southeast 498 573 35,000  Level FlightAware ADS-B
Thu 03:30:02 AM 52.9991 -7.6869 120° Southeast 494 568 35,000  Level FlightAware UK
Thu 03:30:14 AM 52.9880 -7.6600 120° Southeast 498 573 35,000  Level FlightAware ADS-B
Thu 03:30:22 AM 52.9757 -7.6240 120° Southeast 498 573 35,000  Level FlightAware ADS-B
Thu 03:31:02 AM 52.9281 -7.4905 120° Southeast 494 568 35,000  Level FlightAware UK
Thu 03:31:14 AM 52.9146 -7.4538 120° Southeast 498 573 35,000  Level FlightAware ADS-B
Thu 03:31:45 AM 52.8779 -7.3525 121° Southeast 498 573 35,000  Level FlightAware ADS-B
Thu 03:32:15 AM 52.8421 -7.2550 121° Southeast 498 573 35,000  Level FlightAware ADS-B
Thu 03:32:54 AM 52.7996 -7.1414 122° Southeast 496 571 35,000  Level FlightAware ADS-B
Thu 03:33:24 AM 52.7671 -7.0512 121° Southeast 494 568 35,000  Level FlightAware ADS-B
Thu 03:34:04 AM 52.7160 -6.9135 121° Southeast 492 566 35,000  Level FlightAware ADS-B
Thu 03:34:37 AM 52.6736 -6.7983 121° Southeast 492 566 35,000  Level FlightAware ADS-B
Thu 03:34:39 AM 52.6715 -6.7916 121° Southeast 490 564 35,000  Level FlightAware UK
Thu 03:35:09 AM 52.6357 -6.6961 121° Southeast 488 562 35,000  Level FlightAware UK
Thu 03:35:29 AM 52.6140 -6.6420 121° Southeast 494 568 35,000  Level FlightAware ADS-B
Thu 03:36:08 AM 52.5670 -6.5170 122° Southeast 497 572 35,000  Level FlightAware ADS-B
Thu 03:36:25 AM 52.5436 -6.4528 121° Southeast 499 574 35,000  Level FlightAware ADS-B
Thu 03:37:06 AM 52.4943 -6.3240 122° Southeast 502 578 35,000  Level FlightAware ADS-B (EGCW)
Thu 03:37:39 AM 52.4537 -6.2145 122° Southeast 494 568 35,000  Level FlightAware UK
Thu 03:37:46 AM 52.4478 -6.2015 122° Southeast 502 578 35,000  Level FlightAware ADS-B (EGCW)
Thu 03:38:26 AM 52.3962 -6.0663 122° Southeast 503 579 35,000  Level FlightAware ADS-B (EGCW)
Thu 03:39:01 AM 52.3530 -5.9540 122° Southeast 501 577 35,000  Level FlightAware ADS-B
Thu 03:39:17 AM 52.3322 -5.8997 122° Southeast 502 578 35,000  Level FlightAware ADS-B (EGCW)
Thu 03:39:49 AM 52.2955 -5.8070 123° Southeast 501 577 35,000  Level FlightAware ADS-B (EGCW)
Thu 03:40:37 AM 52.2372 -5.6445 120° Southeast 505 581 35,000  Level FlightAware ADS-B (EGCW)
Thu 03:41:09 AM 52.2103 -5.5264 110° East 511 588 35,000  Level FlightAware ADS-B (EGCW)
Thu 03:41:42 AM 52.1936 -5.4021 102° East 515 593 35,000  Level FlightAware ADS-B
Thu 03:42:12 AM 52.1825 -5.3106 102° East 514 592 35,000  Level FlightAware ADS-B
Thu 03:42:15 AM 52.1786 -5.2756 102° East 494 568 35,000  Level FlightAware UK
Thu 03:42:45 AM 52.1648 -5.1617 102° East 494 568 35,000  Level FlightAware UK
Thu 03:42:50 AM 52.1624 -5.1437 102° East 516 594 35,000  Level FlightAware ADS-B (EGCW)
Thu 03:43:21 AM 52.1490 -5.0335 101° East 516 594 35,000  Level FlightAware ADS-B (EGCW)
Thu 03:43:52 AM 52.1337 -4.9159 102° East 515 593 35,000  Level FlightAware ADS-B (EGCW)
Thu 03:44:24 AM 52.1138 -4.7926 105° East 514 592 35,000  Level FlightAware ADS-B (EGCW)
Thu 03:44:54 AM 52.0984 -4.6993 105° East 514 592 35,000  Level FlightAware ADS-B (EGDX / DGX)
Thu 03:45:24 AM 52.0786 -4.5761 105° East 515 593 35,000  Level FlightAware ADS-B (EGDX / DGX)
Thu 03:45:55 AM 52.0714 -4.5313 105° East 515 593 35,000  Level FlightAware ADS-B (EGDX / DGX)
Thu 03:46:25 AM 52.0408 -4.3406 105° East 515 593 35,000  Level FlightAware ADS-B (EGCW)
Thu 03:46:55 AM 52.0228 -4.2287 105° East 516 594 35,000  Level FlightAware ADS-B (EGCW)
Thu 03:47:25 AM 52.0049 -4.1169 104° East 515 593 35,000  Level FlightAware ADS-B (EGCW)
Thu 03:47:55 AM 51.9866 -4.0051 105° East 515 593 35,000  Level FlightAware ADS-B (EGCW)
Thu 03:48:26 AM 51.9733 -3.9232 105° East 516 594 35,000  Level FlightAware ADS-B (EGDM)
Thu 03:48:56 AM 51.9484 -3.7740 105° East 516 594 35,000  Level FlightAware ADS-B (EGDM)
Thu 03:49:27 AM 51.9304 -3.6661 105° East 516 594 35,000  Level FlightAware ADS-B (EGDM)
Thu 03:50:07 AM 51.9044 -3.5097 105° East 516 594 35,000  Level FlightAware ADS-B (EGDM)
Thu 03:50:37 AM 51.8855 -3.3983 105° East 516 594 35,000  Level FlightAware ADS-B (EGDM)
Thu 03:51:07 AM 51.8743 -3.3349 106° East 517 595 35,000  Level FlightAware ADS-B (EGDM)
Thu 03:51:40 AM 51.8454 -3.1640 105° East 517 595 35,000  Level FlightAware ADS-B
Thu 03:52:13 AM 51.8290 -3.0714 106° East 516 594 35,000  Level FlightAware ADS-B (EGDM)
Thu 03:52:44 AM 51.8040 -2.9267 106° East 517 595 35,000  Level FlightAware ADS-B (EGDM)
Thu 03:53:15 AM 51.7847 -2.8155 106° East 518 596 35,000  Level FlightAware ADS-B (EGDX / DGX)
Thu 03:53:32 AM 51.7721 -2.7450 106° East 515 593 35,000  Level FlightAware ADS-B (EGDX / DGX)
Thu 03:54:04 AM 51.7542 -2.6293 104° East 519 597 35,000  Level FlightAware ADS-B (EGDM)
Thu 03:54:18 AM 51.7497 -2.5989 103° East 520 598 35,000  Level FlightAware ADS-B (EGDX / DGX)
Thu 03:54:45 AM 51.7371 -2.4926 101° East 520 598 35,000  Level FlightAware ADS-B (EGDX / DGX)
Thu 03:55:15 AM 51.7230 -2.3628 100° East 521 600 35,000  Level FlightAware ADS-B (EGDX / DGX)
Thu 03:55:36 AM 51.7331 -2.4583 280° West 520 598 35,000  Level FlightAware ADS-B
Thu 03:56:08 AM 51.7020 -2.1606 99° East 521 600 35,000  Level FlightAware ADS-B (EGCW)
Thu 03:56:39 AM 51.7025 -2.1644 281° West 521 600 35,000  Level FlightAware ADS-B
Thu 03:56:50 AM 51.6866 -2.0116 99° East 521 600 35,000  Level FlightAware ADS-B (EGDX / DGX)
Thu 03:57:26 AM 51.6730 -1.8779 99° East 521 600 35,000  Level FlightAware ADS-B
Thu 03:57:58 AM 51.6579 -1.7364 100° East 522 601 35,000  Level FlightAware ADS-B
Thu 03:58:28 AM 51.6457 -1.6257 100° East 523 602 35,000  Level FlightAware ADS-B
Thu 03:58:50 AM 51.6367 -1.5417 100° East 523 602 35,000  Level FlightAware ADS-B (EGDM)
Thu 03:59:21 AM 51.6232 -1.4191 100° East 523 602 35,000  Level FlightAware ADS-B
Thu 03:59:53 AM 51.6100 -1.3009 100° East 523 602 35,000  Level FlightAware ADS-B
Thu 04:00:28 AM 51.5950 -1.1674 100° East 524 603 35,000  Level FlightAware ADS-B (EGDM)
Thu 04:00:58 AM 51.5825 -1.0563 100° East 524 603 35,000  Level FlightAware ADS-B
Thu 04:01:15 AM 51.5829 -1.0605 279° West 524 603 35,000  Level FlightAware ADS-B (EGTC)
Thu 04:01:47 AM 51.5600 -0.8655 101° East 525 604 35,000  Level FlightAware ADS-B
Thu 04:02:23 AM 51.5438 -0.7223 101° East 496 571 35,000  Level FlightAware UK
Thu 04:02:28 AM 51.5414 -0.7051 101° East 525 604 35,000  Level FlightAware ADS-B (EGDM)
Thu 04:02:58 AM 51.5278 -0.5905 101° East 525 604 35,000  Level FlightAware ADS-B (EGDM)
Thu 04:03:30 AM 51.5143 -0.4757 101° East 525 604 35,000  Level FlightAware ADS-B
Thu 04:04:00 AM 51.4998 -0.3533 101° East 526 605 35,000  Level FlightAware ADS-B
Thu 04:04:33 AM 51.4844 -0.2271 101° East 527 606 35,000  Level FlightAware ADS-B (EGDM)
Thu 04:05:04 AM 51.4703 -0.1125 101° East 527 606 35,000  Level FlightAware ADS-B
Thu 04:05:34 AM 51.4565 -0.0014 101° East 527 606 35,000  Level FlightAware ADS-B
Thu 04:06:05 AM 51.4412 0.1209 101° East 527 606 35,000  Level FlightAware ADS-B
Thu 04:06:35 AM 51.4267 0.2354 101° East 526 605 35,000  Level FlightAware ADS-B
Thu 04:06:47 AM 51.4213 0.2775 102° East 528 608 35,000  Level FlightAware ADS-B (EGDM)
Thu 04:07:18 AM 51.4056 0.4049 102° East 494 568 35,000  Level FlightAware UK
Thu 04:07:26 AM 51.4014 0.4346 102° East 530 610 35,000  Level FlightAware ADS-B
Thu 04:08:00 AM 51.3859 0.5570 101° East 529 609 35,000  Level FlightAware ADS-B
Thu 04:08:30 AM 51.3700 0.6806 101° East 494 568 35,000  Level FlightAware UK
Thu 04:08:36 AM 51.3671 0.7024 101° East 528 608 35,000  Level FlightAware ADS-B
Thu 04:08:44 AM 51.3630 0.7330 102° East 529 609 35,000  Level FlightAware ADS-B
Thu 04:09:16 AM 51.3468 0.8554 102° East 529 609 35,000  Level FlightAware ADS-B
Thu 04:09:27 AM 51.3418 0.8939 102° East 530 610 35,000  Level FlightAware ADS-B
Thu 04:10:01 AM 51.3239 1.0279 102° East 532 612 35,000  Level FlightAware ADS-B
Thu 04:10:34 AM 51.3054 1.1539 103° East 533 613 35,000  Level FlightAware ADS-B
Thu 04:11:04 AM 51.2884 1.2603 104° East 533 613 35,000  Level FlightAware ADS-B
Thu 04:11:36 AM 51.2680 1.3862 104° East 533 613 35,000  Level FlightAware ADS-B
Thu 04:12:06 AM 51.2492 1.5042 104° East 534 615 35,000  Level FlightAware ADS-B
Thu 04:12:36 AM 51.2315 1.6149 104° East 536 617 35,000  Level FlightAware ADS-B
Thu 04:13:07 AM 51.2126 1.7332 104° East 536 617 35,000  Level FlightAware ADS-B
Thu 04:13:41 AM 51.1916 1.8633 104° East 537 618 35,000  Level FlightAware ADS-B
Thu 04:14:15 AM 51.1710 1.9930 104° East 536 617 35,000  Level FlightAware ADS-B
Thu 04:14:21 AM 51.1696 2.0008 106° East 537 618 35,000  Level FlightAware ADS-B
Thu 04:14:54 AM 51.1471 2.1387 105° East 538 619 35,000  Level FlightAware ADS-B
Thu 04:15:26 AM 51.1260 2.2690 104° East 539 620 35,000  Level FlightAware ADS-B
Thu 04:16:00 AM 51.1040 2.3950 105° East 539 620 35,000  Level FlightAware ADS-B
Thu 04:16:11 AM 51.0974 2.4373 104° East 541 623 35,000  Level FlightAware ADS-B
Thu 04:16:49 AM 51.0726 2.5886 104° East 494 568 35,000  Level FlightAware UK
Thu 04:17:10 AM 51.0600 2.6640 104° East 542 624 35,000  Level FlightAware ADS-B
Thu 04:17:45 AM 51.0370 2.7940 106° East 544 626 35,000  Level FlightAware ADS-B
Thu 04:18:22 AM 51.0120 2.9450 105° East 546 628 35,000  Level FlightAware ADS-B
Thu 04:18:55 AM 50.9910 3.0650 105° East 546 628 35,000  Level FlightAware ADS-B
Thu 04:19:25 AM 50.9692 3.1904 105° East 494 568 35,000  Level FlightAware UK
Thu 04:19:29 AM 50.9670 3.2000 105° East 547 629 35,000  Level FlightAware ADS-B
Thu 04:20:04 AM 50.9440 3.3310 106° East 548 631 35,000  Level FlightAware ADS-B
Thu 04:20:43 AM 50.9160 3.4890 106° East 549 632 35,000  Level FlightAware ADS-B
Thu 04:21:16 AM 50.8940 3.6130 106° East 549 632 35,000  Level FlightAware ADS-B
Thu 04:21:50 AM 50.8710 3.7410 106° East 549 632 35,000  Level FlightAware ADS-B
Thu 04:22:24 AM 50.8470 3.8760 106° East 551 634 35,000  Level FlightAware ADS-B
Thu 04:23:00 AM 50.8210 4.0150 106° East 552 635 35,000  Level FlightAware ADS-B
Thu 04:23:36 AM 50.7960 4.1550 106° East 554 638 35,000  Level FlightAware ADS-B
Thu 04:24:13 AM 50.7700 4.2950 106° East 555 639 35,000  Level FlightAware ADS-B
Thu 04:24:44 AM 50.7470 4.4190 106° East 555 639 35,000  Level FlightAware ADS-B
Thu 04:25:14 AM 50.7248 4.5388 106° East 496 571 35,000  Level FlightAware UK
Thu 04:25:19 AM 50.7210 4.5550 106° East 556 640 35,000  Level FlightAware ADS-B
Thu 04:25:56 AM 50.6930 4.7020 107° East 558 642 35,000  Level FlightAware ADS-B
Thu 04:26:33 AM 50.6620 4.8400 109° East 558 642 35,000  Level FlightAware ADS-B
Thu 04:27:05 AM 50.6330 4.9620 111° Southeast 558 642 35,000  Level FlightAware ADS-B
Thu 04:27:40 AM 50.6030 5.0950 110° East 557 641 35,000  Level FlightAware ADS-B
Thu 04:28:17 AM 50.5700 5.2400 110° East 557 641 35,000  Level FlightAware ADS-B
Thu 04:28:52 AM 50.5400 5.3700 110° East 557 641 35,000  Level FlightAware ADS-B
Thu 04:29:24 AM 50.5120 5.4910 110° East 557 641 35,000  Level FlightAware ADS-B
Thu 04:30:01 AM 50.4810 5.6280 110° East 558 642 35,000  Level FlightAware ADS-B
Thu 04:30:38 AM 50.4470 5.7720 110° East 557 641 35,000  Level FlightAware ADS-B
Thu 04:31:09 AM 50.4200 5.8860 110° East 557 641 35,000  Level FlightAware ADS-B
Thu 04:31:45 AM 50.3890 6.0220 110° East 557 641 35,000  Level FlightAware ADS-B
Thu 04:32:22 AM 50.3560 6.1590 111° Southeast 558 642 35,000  Level FlightAware ADS-B
Thu 04:32:56 AM 50.3250 6.2910 110° East 559 643 35,000  Level FlightAware ADS-B
Thu 04:33:31 AM 50.2930 6.4230 111° Southeast 559 643 35,000  Level FlightAware ADS-B
Thu 04:34:06 AM 50.2610 6.5560 111° Southeast 560 644 35,000  Level FlightAware ADS-B
Thu 04:34:40 AM 50.2310 6.6800 111° Southeast 560 644 35,000 348 Level FlightAware ADS-B
Thu 04:35:15 AM 50.1960 6.8200 111° Southeast 562 647 35,400 985 Climbing FlightAware ADS-B
Thu 04:35:47 AM 50.1660 6.9410 111° Southeast 561 646 36,100 1,183 Climbing FlightAware ADS-B
Thu 04:36:26 AM 50.1340 7.0720 111° Southeast 558 642 36,800 750 Climbing FlightAware ADS-B
Thu 04:36:59 AM 50.1000 7.2110 111° Southeast 557 641 37,000 182 Climbing FlightAware ADS-B
Thu 04:37:32 AM 50.0690 7.3300 112° Southeast 555 639 37,000  Level FlightAware ADS-B
Thu 04:38:09 AM 50.0350 7.4670 111° Southeast 553 636 37,000  Level FlightAware ADS-B
Thu 04:38:41 AM 50.0060 7.5850 111° Southeast 552 635 37,000  Level FlightAware ADS-B
Thu 04:39:23 AM 49.9650 7.7430 112° Southeast 552 635 37,000  Level FlightAware ADS-B
Thu 04:39:53 AM 49.9370 7.8530 112° Southeast 552 635 37,000  Level FlightAware ADS-B
Thu 04:40:30 AM 49.9010 7.9930 112° Southeast 552 635 37,000  Level FlightAware ADS-B
Thu 04:41:07 AM 49.8660 8.1290 112° Southeast 553 636 37,000  Level FlightAware ADS-B
Thu 04:41:40 AM 49.8350 8.2460 112° Southeast 553 636 37,000  Level FlightAware ADS-B
Thu 04:42:16 AM 49.7970 8.3760 114° Southeast 551 634 37,000  Level FlightAware ADS-B
Thu 04:42:36 AM 49.7650 8.4370 129° Southeast 548 631 37,000  Level FlightAware ADS-B
Thu 04:43:00 AM 49.7170 8.4950 142° Southeast 542 624 37,000  Level FlightAware ADS-B
Thu 04:43:32 AM 49.6470 8.5520 152° Southeast 538 619 37,000  Level FlightAware ADS-B
Thu 04:44:07 AM 49.5670 8.6100 155° Southeast 537 618 37,000  Level FlightAware ADS-B
Thu 04:44:44 AM 49.4830 8.6670 156° South 538 619 37,000  Level FlightAware ADS-B
Thu 04:45:20 AM 49.4020 8.7230 156° South 538 619 37,000  Level FlightAware ADS-B
Thu 04:45:51 AM 49.3320 8.7720 155° Southeast 540 621 37,000  Level FlightAware ADS-B
Thu 04:46:28 AM 49.2470 8.8300 156° South 541 623 37,000  Level FlightAware ADS-B
Thu 04:47:02 AM 49.1700 8.8830 156° South 540 621 37,000  Level FlightAware ADS-B
Thu 04:47:37 AM 49.0890 8.9390 156° South 540 621 37,000  Level FlightAware ADS-B
Thu 04:48:15 AM 49.0060 9.0070 152° Southeast 546 628 37,000  Level FlightAware ADS-B
Thu 04:48:47 AM 48.9370 9.0720 148° Southeast 547 629 37,000  Level FlightAware ADS-B
Thu 04:49:21 AM 48.8620 9.1410 149° Southeast 547 629 37,000  Level FlightAware ADS-B
Thu 04:49:57 AM 48.7880 9.2080 149° Southeast 547 629 37,000  Level FlightAware ADS-B
Thu 04:50:31 AM 48.7140 9.2740 150° Southeast 547 629 37,000  Level FlightAware ADS-B
Thu 04:51:06 AM 48.6380 9.3400 150° Southeast 547 629 37,000  Level FlightAware ADS-B
Thu 04:51:43 AM 48.5530 9.4140 150° Southeast 546 628 37,000  Level FlightAware ADS-B
Thu 04:52:19 AM 48.4750 9.4840 149° Southeast 545 627 37,000  Level FlightAware ADS-B
Thu 04:52:52 AM 48.4060 9.5460 149° Southeast 544 626 37,000  Level FlightAware ADS-B
Thu 04:53:27 AM 48.3270 9.6170 149° Southeast 543 625 37,000  Level FlightAware ADS-B
Thu 04:54:04 AM 48.2480 9.6860 150° Southeast 543 625 37,000  Level FlightAware ADS-B
Thu 04:54:39 AM 48.1740 9.7570 147° Southeast 545 627 37,000  Level FlightAware ADS-B
Thu 04:55:11 AM 48.1130 9.8290 142° Southeast 548 631 37,000  Level FlightAware ADS-B
Thu 04:55:48 AM 48.0420 9.9260 138° Southeast 549 632 37,000  Level FlightAware ADS-B
Thu 04:56:24 AM 47.9760 10.0160 138° Southeast 549 632 37,000  Level FlightAware ADS-B
Thu 04:56:57 AM 47.9150 10.1010 137° Southeast 550 633 37,000  Level FlightAware ADS-B
Thu 04:57:32 AM 47.8480 10.1930 137° Southeast 549 632 37,000  Level FlightAware ADS-B
Thu 04:58:08 AM 47.7810 10.2850 137° Southeast 548 631 37,000  Level FlightAware ADS-B
Thu 04:58:38 AM 47.7270 10.3580 138° Southeast 547 629 37,000  Level FlightAware ADS-B
Thu 04:59:16 AM 47.6520 10.4570 138° Southeast 547 629 37,000  Level FlightAware ADS-B
Thu 04:59:55 AM 47.5820 10.5520 138° Southeast 547 629 37,000  Level FlightAware ADS-B
Thu 05:00:34 AM 47.5080 10.6500 138° Southeast 547 629 37,000  Level FlightAware ADS-B
Thu 05:01:08 AM 47.4460 10.7320 138° Southeast 546 628 37,000  Level FlightAware ADS-B
Thu 05:01:47 AM 47.3740 10.8290 138° Southeast 545 627 37,000  Level FlightAware ADS-B
Thu 05:02:22 AM 47.3070 10.9160 139° Southeast 545 627 37,000  Level FlightAware ADS-B
Thu 05:02:52 AM 47.2470 10.9960 138° Southeast 545 627 37,000  Level FlightAware ADS-B
Thu 05:03:29 AM 47.1790 11.0870 138° Southeast 544 626 37,000  Level FlightAware ADS-B
Thu 05:04:08 AM 47.1060 11.1800 139° Southeast 544 626 37,000  Level FlightAware ADS-B
Thu 05:04:40 AM 47.0430 11.2640 138° Southeast 541 623 37,000  Level FlightAware ADS-B
Thu 05:05:15 AM 46.9790 11.3460 139° Southeast 539 620 37,000  Level FlightAware ADS-B
Thu 05:05:52 AM 46.9120 11.4330 138° Southeast 537 618 37,000  Level FlightAware ADS-B
Thu 05:06:24 AM 46.8540 11.5100 138° Southeast 536 617 37,000  Level FlightAware ADS-B
Thu 05:07:08 AM 46.7690 11.6170 139° Southeast 534 615 37,000  Level FlightAware ADS-B
Thu 05:07:41 AM 46.7090 11.6960 138° Southeast 535 616 37,000  Level FlightAware ADS-B
Thu 05:08:14 AM 46.6450 11.7770 139° Southeast 539 620 37,000  Level FlightAware ADS-B
Thu 05:08:52 AM 46.5740 11.8680 139° Southeast 540 621 37,000  Level FlightAware ADS-B
Thu 05:09:25 AM 46.5140 11.9440 139° Southeast 539 620 37,000  Level FlightAware ADS-B
Thu 05:10:02 AM 46.4480 12.0270 139° Southeast 538 619 37,000  Level FlightAware ADS-B
Thu 05:10:40 AM 46.3710 12.1250 139° Southeast 538 619 37,000  Level FlightAware ADS-B
Thu 05:11:02 AM 46.3330 12.1720 139° Southeast 538 619 37,000  Level FlightAware ADS-B
Thu 05:11:53 AM 46.2350 12.2940 139° Southeast 536 617 37,000  Level FlightAware ADS-B
Thu 05:12:29 AM 46.1670 12.3800 139° Southeast 536 617 37,000  Level FlightAware ADS-B
Thu 05:13:07 AM 46.0960 12.4670 140° Southeast 536 617 37,000  Level FlightAware ADS-B
Thu 05:13:43 AM 46.0310 12.5480 139° Southeast 535 616 37,000  Level FlightAware ADS-B
Thu 05:14:15 AM 45.9670 12.6270 139° Southeast 533 613 37,000  Level FlightAware ADS-B
Thu 05:14:56 AM 45.8930 12.7170 140° Southeast 533 613 37,000  Level FlightAware ADS-B
Thu 05:15:36 AM 45.8200 12.8060 140° Southeast 531 611 37,000  Level FlightAware ADS-B
Thu 05:16:06 AM 45.7650 12.8750 139° Southeast 530 610 37,000  Level FlightAware ADS-B
Thu 05:16:46 AM 45.6880 12.9680 140° Southeast 529 609 37,000  Level FlightAware ADS-B
Thu 05:17:18 AM 45.6280 13.0430 139° Southeast 528 608 37,000  Level FlightAware ADS-B
Thu 05:17:53 AM 45.5620 13.1220 140° Southeast 529 609 37,000  Level FlightAware ADS-B
Thu 05:18:28 AM 45.4990 13.2040 138° Southeast 526 605 37,000  Level FlightAware ADS-B
Thu 05:19:03 AM 45.4420 13.2930 132° Southeast 528 608 37,000  Level FlightAware ADS-B
Thu 05:19:38 AM 45.3890 13.3940 127° Southeast 528 608 37,000  Level FlightAware ADS-B
Thu 05:20:13 AM 45.3420 13.4860 126° Southeast 529 609 37,000  Level FlightAware ADS-B
Thu 05:20:55 AM 45.2920 13.5790 127° Southeast 534 615 37,000  Level FlightAware ADS-B
Thu 05:21:33 AM 45.2200 13.7170 126° Southeast 536 617 37,000  Level FlightAware ADS-B
Thu 05:22:03 AM 45.1760 13.8010 127° Southeast 537 618 37,000  Level FlightAware ADS-B
Thu 05:22:43 AM 45.1160 13.9110 128° Southeast 536 617 37,000  Level FlightAware ADS-B
Thu 05:23:18 AM 45.0630 14.0110 127° Southeast 536 617 37,000  Level FlightAware ADS-B
Thu 05:23:48 AM 45.0210 14.0890 127° Southeast 536 617 37,000  Level FlightAware ADS-B
Thu 05:24:30 AM 44.9550 14.2110 127° Southeast 527 606 37,000  Level FlightAware ADS-B
Thu 05:25:05 AM 44.9050 14.2990 129° Southeast 536 617 37,000  Level FlightAware ADS-B
Thu 05:25:41 AM 44.8520 14.3950 128° Southeast 531 611 37,000  Level FlightAware ADS-B
Thu 05:26:21 AM 44.7910 14.5050 128° Southeast 532 612 37,000  Level FlightAware ADS-B
Thu 05:26:59 AM 44.7320 14.6130 128° Southeast 539 620 37,000  Level FlightAware ADS-B
Thu 05:27:34 AM 44.6740 14.7170 128° Southeast 533 613 37,000  Level FlightAware ADS-B
Thu 05:28:19 AM 44.6050 14.8380 129° Southeast 532 612 37,000  Level FlightAware ADS-B
Thu 05:28:59 AM 44.5440 14.9470 128° Southeast 531 611 37,000  Level FlightAware ADS-B
Thu 05:29:34 AM 44.4910 15.0420 128° Southeast 529 609 37,000  Level FlightAware ADS-B
Thu 05:30:10 AM 44.4370 15.1360 129° Southeast 528 608 37,000  Level FlightAware ADS-B
Thu 05:30:44 AM 44.3840 15.2310 128° Southeast 527 606 37,000  Level FlightAware ADS-B
Thu 05:31:20 AM 44.3300 15.3250 129° Southeast 526 605 37,000  Level FlightAware ADS-B
Thu 05:31:55 AM 44.2760 15.4180 129° Southeast 526 605 37,000  Level FlightAware ADS-B
Thu 05:32:29 AM 44.2220 15.5120 129° Southeast 526 605 37,000  Level FlightAware ADS-B
Thu 05:33:05 AM 44.1680 15.6050 129° Southeast 525 604 37,000  Level FlightAware ADS-B
Thu 05:33:40 AM 44.1120 15.7040 128° Southeast 524 603 37,000  Level FlightAware ADS-B
Thu 05:34:20 AM 44.0510 15.8090 129° Southeast 522 601 37,000  Level FlightAware ADS-B
Thu 05:34:55 AM 43.9980 15.9010 129° Southeast 521 600 37,000  Level FlightAware ADS-B
Thu 05:35:35 AM 43.9370 16.0040 129° Southeast 521 600 37,000  Level FlightAware ADS-B
Thu 05:36:05 AM 43.8910 16.0820 129° Southeast 520 598 37,000  Level FlightAware ADS-B
Thu 05:36:45 AM 43.8300 16.1860 129° Southeast 518 596 37,000  Level FlightAware ADS-B
Thu 05:37:15 AM 43.7830 16.2660 129° Southeast 516 594 37,000  Level FlightAware ADS-B
Thu 05:37:50 AM 43.7300 16.3540 130° Southeast 515 593 37,000  Level FlightAware ADS-B
Thu 05:38:25 AM 43.6770 16.4470 128° Southeast 515 593 37,000  Level FlightAware ADS-B
Thu 05:39:05 AM 43.6160 16.5460 130° Southeast 515 593 37,000  Level FlightAware ADS-B
Thu 05:39:35 AM 43.5700 16.6260 128° Southeast 515 593 37,000  Level FlightAware ADS-B
Thu 05:40:11 AM 43.5160 16.7150 130° Southeast 514 592 37,000  Level FlightAware ADS-B
Thu 05:40:45 AM 43.4650 16.7990 130° Southeast 514 592 37,000  Level FlightAware ADS-B
Thu 05:41:25 AM 43.4010 16.9060 129° Southeast 514 592 37,000  Level FlightAware ADS-B
Thu 05:41:55 AM 43.3560 16.9800 130° Southeast 514 592 37,000  Level FlightAware ADS-B
Thu 05:42:30 AM 43.3020 17.0680 130° Southeast 513 590 37,000  Level FlightAware ADS-B
Thu 05:43:05 AM 43.2490 17.1570 129° Southeast 512 589 37,000  Level FlightAware ADS-B
Thu 05:43:41 AM 43.1960 17.2450 130° Southeast 512 589 37,000  Level FlightAware ADS-B
Thu 05:44:15 AM 43.1410 17.3350 130° Southeast 512 589 37,000  Level FlightAware ADS-B
Thu 05:44:55 AM 43.0850 17.4250 130° Southeast 511 588 37,000  Level FlightAware ADS-B
Thu 05:45:25 AM 43.0340 17.5070 130° Southeast 510 587 37,000  Level FlightAware ADS-B
Thu 05:46:00 AM 42.9820 17.5920 130° Southeast 510 587 37,000  Level FlightAware ADS-B
Thu 05:46:37 AM 42.9230 17.6860 131° Southeast 515 593 37,000  Level FlightAware ADS-B
Thu 05:47:15 AM 42.8630 17.7830 130° Southeast 513 590 37,000  Level FlightAware ADS-B
Thu 05:47:45 AM 42.8210 17.8500 131° Southeast 507 583 37,000  Level FlightAware ADS-B
Thu 05:48:19 AM 42.7660 17.9400 130° Southeast 505 581 37,000  Level FlightAware ADS-B
Thu 05:48:58 AM 42.7060 18.0350 131° Southeast 507 583 37,000  Level FlightAware ADS-B
Thu 05:49:43 AM 42.6390 18.1420 130° Southeast 501 577 37,000  Level FlightAware ADS-B
Thu 05:50:19 AM 42.5840 18.2280 131° Southeast 500 575 37,000  Level FlightAware ADS-B
Thu 05:50:53 AM 42.5320 18.3060 132° Southeast 500 575 37,000  Level FlightAware ADS-B
Thu 05:51:29 AM 42.4760 18.3820 135° Southeast 504 580 37,000  Level FlightAware ADS-B
Thu 05:52:08 AM 42.4050 18.4780 135° Southeast 503 579 37,000  Level FlightAware ADS-B
Thu 05:52:39 AM 42.3550 18.5470 134° Southeast 503 579 37,000  Level FlightAware ADS-B
Thu 05:53:17 AM 42.2900 18.6310 136° Southeast 502 578 37,000  Level FlightAware ADS-B
Thu 05:53:53 AM 42.2320 18.7100 135° Southeast 501 577 37,000  Level FlightAware ADS-B
Thu 05:54:25 AM 42.1840 18.7740 135° Southeast 500 575 37,000  Level FlightAware ADS-B
Thu 05:55:01 AM 42.1190 18.8590 136° Southeast 500 575 37,000  Level FlightAware ADS-B
Thu 05:55:37 AM 42.0600 18.9380 135° Southeast 500 575 37,000  Level FlightAware ADS-B
Thu 05:56:13 AM 42.0050 19.0120 135° Southeast 501 577 37,000  Level FlightAware ADS-B
Thu 05:56:44 AM 41.9590 19.0730 135° Southeast 501 577 37,000  Level FlightAware ADS-B
Thu 05:57:21 AM 41.8880 19.1650 136° Southeast 502 578 37,000  Level FlightAware ADS-B
Thu 05:57:57 AM 41.8280 19.2430 136° Southeast 502 578 37,000  Level FlightAware ADS-B
Thu 05:58:33 AM 41.7670 19.3220 136° Southeast 502 578 37,000  Level FlightAware ADS-B
Thu 05:59:07 AM 41.7070 19.3910 139° Southeast 500 575 37,000  Level FlightAware ADS-B
Thu 05:59:39 AM 41.6530 19.4530 139° Southeast 498 573 37,000  Level FlightAware ADS-B
Thu 06:00:18 AM 41.5840 19.5280 141° Southeast 497 572 37,000  Level FlightAware ADS-B
Thu 06:00:50 AM 41.5260 19.5940 140° Southeast 496 571 37,000  Level FlightAware ADS-B
Thu 06:01:28 AM 41.4580 19.6700 140° Southeast 497 572 37,000  Level FlightAware ADS-B
Thu 06:02:04 AM 41.3980 19.7420 138° Southeast 497 572 37,000  Level FlightAware ADS-B
Thu 06:02:35 AM 41.3500 19.8070 135° Southeast 496 571 37,000  Level FlightAware ADS-B
Thu 06:03:12 AM 41.2880 19.8890 135° Southeast 495 570 37,000  Level FlightAware ADS-B
Thu 06:03:48 AM 41.2300 19.9670 135° Southeast 494 568 37,000  Level FlightAware ADS-B
Thu 06:04:20 AM 41.1820 20.0340 134° Southeast 493 567 37,000  Level FlightAware ADS-B
Thu 06:04:52 AM 41.1280 20.1050 135° Southeast 493 567 37,000  Level FlightAware ADS-B
Thu 06:05:33 AM 41.0620 20.1930 135° Southeast 493 567 37,000  Level FlightAware ADS-B
Thu 06:06:08 AM 41.0070 20.2660 135° Southeast 492 566 37,000  Level FlightAware ADS-B
Thu 06:06:38 AM 40.9580 20.3320 135° Southeast 492 566 37,000  Level FlightAware ADS-B
Thu 06:07:17 AM 40.8970 20.4120 135° Southeast 491 565 37,000  Level FlightAware ADS-B
Thu 06:07:52 AM 40.8390 20.4890 135° Southeast 492 566 37,000  Level FlightAware ADS-B
Thu 06:08:28 AM 40.7830 20.5610 136° Southeast 492 566 37,000  Level FlightAware ADS-B
Thu 06:09:00 AM 40.7320 20.6290 135° Southeast 494 568 37,000  Level FlightAware ADS-B
Thu 06:09:36 AM 40.6720 20.7050 136° Southeast 496 571 37,000  Level FlightAware ADS-B
Thu 06:10:12 AM 40.6110 20.7870 134° Southeast 499 574 37,000  Level FlightAware ADS-B
Thu 06:10:44 AM 40.5580 20.8550 136° Southeast 501 577 37,000  Level FlightAware ADS-B
Thu 06:11:24 AM 40.4930 20.9380 136° Southeast 502 578 37,000  Level FlightAware ADS-B
Thu 06:11:48 AM 40.4610 20.9780 136° Southeast 502 578 37,000  Level FlightAware ADS-B
Thu 06:12:32 AM 40.3720 21.0810 139° Southeast 501 577 37,000  Level FlightAware ADS-B
Thu 06:13:06 AM 40.3130 21.1490 139° Southeast 500 575 37,000  Level FlightAware ADS-B
Thu 06:13:40 AM 40.2550 21.2150 139° Southeast 499 574 37,000  Level FlightAware ADS-B
Thu 06:14:14 AM 40.1970 21.2820 139° Southeast 496 571 37,000  Level FlightAware ADS-B
Thu 06:14:52 AM 40.1300 21.3590 139° Southeast 493 567 37,000  Level FlightAware ADS-B
Thu 06:15:28 AM 40.0690 21.4270 140° Southeast 491 565 37,000  Level FlightAware ADS-B
Thu 06:16:00 AM 40.0140 21.4900 139° Southeast 490 564 37,000  Level FlightAware ADS-B
Thu 06:16:36 AM 39.9520 21.5590 140° Southeast 489 563 37,000  Level FlightAware ADS-B
Thu 06:17:12 AM 39.8910 21.6290 139° Southeast 484 557 37,000  Level FlightAware ADS-B
Thu 06:17:48 AM 39.8290 21.6990 139° Southeast 481 554 37,000  Level FlightAware ADS-B
Thu 06:18:20 AM 39.7750 21.7600 139° Southeast 479 551 37,000  Level FlightAware ADS-B
Thu 06:18:56 AM 39.7160 21.8260 139° Southeast 480 552 37,000  Level FlightAware ADS-B
Thu 06:19:34 AM 39.6510 21.8990 139° Southeast 480 552 37,000  Level FlightAware ADS-B
Thu 06:20:06 AM 39.5970 21.9600 139° Southeast 479 551 37,000  Level FlightAware ADS-B
Thu 06:20:42 AM 39.5380 22.0250 140° Southeast 480 552 37,000  Level FlightAware ADS-B
Thu 06:21:16 AM 39.4790 22.0910 139° Southeast 480 552 37,000  Level FlightAware ADS-B
Thu 06:21:52 AM 39.4190 22.1560 140° Southeast 480 552 37,000  Level FlightAware ADS-B
Thu 06:22:18 AM 39.3760 22.2050 139° Southeast 480 552 37,000  Level FlightAware ADS-B
Thu 06:22:56 AM 39.3100 22.2780 139° Southeast 480 552 37,000  Level FlightAware ADS-B
Thu 06:23:32 AM 39.2500 22.3450 139° Southeast 480 552 37,000  Level FlightAware ADS-B
Thu 06:24:02 AM 39.2010 22.3980 140° Southeast 478 550 37,000  Level FlightAware ADS-B
Thu 06:24:41 AM 39.1390 22.4670 139° Southeast 478 550 37,000  Level FlightAware ADS-B
Thu 06:25:13 AM 39.0800 22.5300 140° Southeast 478 550 37,000  Level FlightAware ADS-B
Thu 06:25:48 AM 39.0250 22.5900 140° Southeast 478 550 37,000  Level FlightAware ADS-B
Thu 06:26:25 AM 38.9590 22.6620 140° Southeast 477 549 37,000  Level FlightAware ADS-B
Thu 06:27:01 AM 38.8970 22.7300 140° Southeast 478 550 37,000  Level FlightAware ADS-B
Thu 06:27:38 AM 38.8350 22.7980 139° Southeast 479 551 37,000  Level FlightAware ADS-B
Thu 06:28:11 AM 38.7790 22.8580 140° Southeast 480 552 37,000  Level FlightAware ADS-B
Thu 06:28:46 AM 38.7200 22.9210 140° Southeast 481 554 37,000  Level FlightAware ADS-B
Thu 06:29:23 AM 38.6570 22.9890 140° Southeast 481 554 37,000  Level FlightAware ADS-B
Thu 06:29:55 AM 38.6010 23.0490 140° Southeast 481 554 37,000  Level FlightAware ADS-B
Thu 06:30:30 AM 38.5420 23.1140 139° Southeast 482 555 37,000  Level FlightAware ADS-B
Thu 06:31:06 AM 38.4800 23.1790 141° Southeast 481 554 37,000  Level FlightAware ADS-B
Thu 06:31:43 AM 38.4170 23.2470 140° Southeast 481 554 37,000  Level FlightAware ADS-B
Thu 06:32:18 AM 38.3580 23.3090 141° Southeast 481 554 37,000  Level FlightAware ADS-B
Thu 06:32:49 AM 38.3070 23.3640 140° Southeast 482 555 37,000  Level FlightAware ADS-B
Thu 06:33:25 AM 38.2430 23.4310 141° Southeast 483 556 37,000  Level FlightAware ADS-B
Thu 06:34:02 AM 38.1790 23.4980 141° Southeast 485 558 37,000  Level FlightAware ADS-B
Thu 06:34:37 AM 38.1190 23.5620 140° Southeast 486 559 37,000  Level FlightAware ADS-B
Thu 06:35:11 AM 38.0610 23.6240 140° Southeast 487 560 37,000  Level FlightAware ADS-B
Thu 06:35:46 AM 37.9990 23.6880 141° Southeast 487 560 37,000  Level FlightAware ADS-B
Thu 06:36:23 AM 37.9340 23.7580 140° Southeast 489 563 37,000  Level FlightAware ADS-B
Thu 06:36:55 AM 37.8810 23.8180 138° Southeast 494 568 37,000  Level FlightAware ADS-B
Thu 06:37:32 AM 37.8250 23.8990 131° Southeast 499 574 37,000  Level FlightAware ADS-B
Thu 06:38:08 AM 37.7700 23.9820 130° Southeast 500 575 37,000  Level FlightAware ADS-B
Thu 06:38:44 AM 37.7170 24.0620 130° Southeast 501 577 37,000  Level FlightAware ADS-B
Thu 06:39:15 AM 37.6710 24.1290 131° Southeast 502 578 37,000  Level FlightAware ADS-B
Thu 06:39:50 AM 37.6180 24.2080 130° Southeast 503 579 37,000  Level FlightAware ADS-B
Thu 06:40:29 AM 37.5600 24.2990 129° Southeast 506 582 37,000  Level FlightAware ADS-B
Thu 06:41:01 AM 37.5180 24.3750 125° Southeast 511 588 37,000  Level FlightAware ADS-B
Thu 06:41:36 AM 37.4740 24.4640 122° Southeast 512 589 37,000  Level FlightAware ADS-B
Thu 06:42:11 AM 37.4300 24.5520 122° Southeast 512 589 37,000  Level FlightAware ADS-B
Thu 06:42:47 AM 37.3850 24.6420 122° Southeast 513 590 37,000  Level FlightAware ADS-B
Thu 06:43:20 AM 37.3430 24.7260 122° Southeast 514 592 37,000  Level FlightAware ADS-B
Thu 06:43:59 AM 37.2930 24.8240 123° Southeast 514 592 37,000  Level FlightAware ADS-B
Thu 06:44:31 AM 37.2510 24.9070 122° Southeast 515 593 37,000  Level FlightAware ADS-B
Thu 06:45:08 AM 37.2040 25.0000 122° Southeast 515 593 37,000  Level FlightAware ADS-B
Thu 06:45:43 AM 37.1590 25.0880 123° Southeast 515 593 37,000  Level FlightAware ADS-B
Thu 06:46:17 AM 37.1160 25.1710 123° Southeast 514 592 37,000  Level FlightAware ADS-B
Thu 06:46:53 AM 37.0720 25.2560 123° Southeast 515 593 37,000  Level FlightAware ADS-B
Thu 06:47:27 AM 37.0280 25.3440 122° Southeast 516 594 37,000  Level FlightAware ADS-B
Thu 06:48:03 AM 36.9810 25.4350 123° Southeast 516 594 37,000  Level FlightAware ADS-B
Thu 06:48:38 AM 36.9350 25.5230 123° Southeast 516 594 37,000  Level FlightAware ADS-B
Thu 06:49:11 AM 36.8910 25.6080 123° Southeast 516 594 37,000  Level FlightAware ADS-B
Thu 06:49:50 AM 36.8420 25.7050 122° Southeast 516 594 37,000  Level FlightAware ADS-B
Thu 06:50:24 AM 36.7980 25.7880 123° Southeast 517 595 37,000  Level FlightAware ADS-B
Thu 06:50:59 AM 36.7500 25.8800 123° Southeast 518 596 37,000  Level FlightAware ADS-B
Thu 06:51:32 AM 36.7090 25.9580 123° Southeast 518 596 37,000  Level FlightAware ADS-B
Thu 06:52:02 AM 36.6690 26.0350 123° Southeast 518 596 37,000  Level FlightAware ADS-B
Thu 06:52:43 AM 36.6150 26.1380 123° Southeast 519 597 37,000  Level FlightAware ADS-B
Thu 06:53:18 AM 36.5700 26.2270 122° Southeast 521 600 37,000  Level FlightAware ADS-B
Thu 06:53:58 AM 36.5240 26.3330 118° Southeast 525 604 37,000  Level FlightAware ADS-B
Thu 06:54:35 AM 36.4840 26.4330 116° Southeast 525 604 37,000  Level FlightAware ADS-B
Thu 06:55:11 AM 36.4440 26.5300 117° Southeast 525 604 37,000  Level FlightAware ADS-B
Thu 06:55:47 AM 36.4070 26.6270 115° Southeast 525 604 37,000  Level FlightAware ADS-B
Thu 06:56:19 AM 36.3710 26.7130 117° Southeast 525 604 37,000  Level FlightAware ADS-B
Thu 06:56:55 AM 36.3320 26.8130 116° Southeast 525 604 37,000  Level FlightAware ADS-B
Thu 06:57:31 AM 36.2930 26.9070 117° Southeast 526 605 37,000  Level FlightAware ADS-B
Thu 06:58:07 AM 36.2540 27.0010 117° Southeast 526 605 37,000  Level FlightAware ADS-B
Thu 06:58:49 AM 36.2060 27.1190 117° Southeast 527 606 37,000  Level FlightAware ADS-B
Thu 06:59:24 AM 36.1680 27.2110 117° Southeast 529 609 37,000  Level FlightAware ADS-B
Thu 06:59:56 AM 36.1320 27.2970 117° Southeast 530 610 37,000  Level FlightAware ADS-B
Thu 07:00:33 AM 36.0910 27.3970 117° Southeast 532 612 37,000  Level FlightAware ADS-B
Thu 07:01:09 AM 36.0510 27.4950 117° Southeast 534 615 37,000  Level FlightAware ADS-B
Thu 07:01:45 AM 36.0090 27.5950 117° Southeast 536 617 37,000  Level FlightAware ADS-B
Thu 07:02:17 AM 35.9720 27.6820 118° Southeast 535 616 37,000  Level FlightAware ADS-B
Thu 07:02:53 AM 35.9230 27.7730 124° Southeast 530 610 37,000  Level FlightAware ADS-B
Thu 07:03:29 AM 35.8710 27.8620 126° Southeast 530 610 37,000  Level FlightAware ADS-B
Thu 07:04:05 AM 35.8200 27.9480 126° Southeast 530 610 37,000  Level FlightAware ADS-B
Thu 07:04:37 AM 35.7740 28.0260 126° Southeast 530 610 37,000  Level FlightAware ADS-B
Thu 07:05:13 AM 35.7220 28.1160 125° Southeast 530 610 37,000  Level FlightAware ADS-B
Thu 07:05:49 AM 35.6710 28.2020 126° Southeast 532 612 37,000  Level FlightAware ADS-B
Thu 07:06:30 AM 35.6140 28.3000 126° Southeast 532 612 37,000  Level FlightAware ADS-B
Thu 07:07:05 AM 35.5600 28.3910 126° Southeast 533 613 37,000  Level FlightAware ADS-B
Thu 07:07:41 AM 35.5080 28.4760 127° Southeast 533 613 37,000  Level FlightAware ADS-B
Thu 07:08:13 AM 35.4620 28.5550 126° Southeast 534 615 37,000  Level FlightAware ADS-B
Thu 07:08:49 AM 35.4090 28.6450 126° Southeast 534 615 37,000  Level FlightAware ADS-B
Thu 07:09:25 AM 35.3560 28.7330 126° Southeast 537 618 37,000  Level FlightAware ADS-B
Thu 07:10:02 AM 35.3020 28.8220 127° Southeast 538 619 37,000  Level FlightAware ADS-B
Thu 07:10:33 AM 35.2570 28.8980 126° Southeast 539 620 37,000  Level FlightAware ADS-B
Thu 07:11:05 AM 35.2080 28.9790 127° Southeast 541 623 37,000  Level FlightAware ADS-B
Thu 07:11:45 AM 35.1500 29.0750 126° Southeast 542 624 37,000  Level FlightAware ADS-B
Thu 07:12:19 AM 35.1000 29.1570 127° Southeast 542 624 37,000  Level FlightAware ADS-B
Thu 07:12:59 AM 35.0500 29.2410 126° Southeast 542 624 37,000  Level FlightAware ADS-B
Thu 07:13:35 AM 34.9880 29.3440 126° Southeast 544 626 37,000  Level FlightAware ADS-B
Thu 07:14:15 AM 34.9370 29.4280 127° Southeast 544 626 37,000  Level FlightAware ADS-B
Thu 07:14:43 AM 34.8850 29.5110 127° Southeast 544 626 37,000  Level FlightAware ADS-B
Thu 07:15:19 AM 34.8330 29.5970 126° Southeast 546 628 37,000  Level FlightAware ADS-B
Thu 07:15:53 AM 34.7780 29.6860 127° Southeast 541 623 37,000  Level FlightAware ADS-B
Thu 07:16:30 AM 34.7260 29.7690 127° Southeast 542 624 37,000  Level FlightAware ADS-B
Thu 07:17:04 AM 34.6690 29.8600 127° Southeast 542 624 37,000  Level FlightAware ADS-B
Thu 07:17:48 AM 34.6150 29.9510 126° Southeast 543 625 37,000  Level FlightAware ADS-B
Thu 07:18:24 AM 34.5700 30.0270 126° Southeast 543 625 37,000  Level FlightAware ADS-B
Thu 07:18:55 AM 34.5170 30.1460 118° Southeast 556 640 37,000  Level FlightAware ADS-B
Thu 07:19:34 AM 34.4670 30.2520 120° Southeast 557 641 37,000  Level FlightAware ADS-B
Thu 07:20:09 AM 34.4220 30.3490 119° Southeast 559 643 37,000  Level FlightAware ADS-B
Thu 07:20:50 AM 34.3690 30.4580 120° Southeast 557 641 37,000  Level FlightAware ADS-B
Thu 07:21:25 AM 34.3220 30.5550 120° Southeast 558 642 37,000  Level FlightAware ADS-B
Thu 07:22:00 AM 34.2780 30.6470 120° Southeast 558 642 37,000  Level FlightAware ADS-B
Thu 07:22:35 AM 34.2310 30.7420 121° Southeast 559 643 37,000  Level FlightAware ADS-B
Thu 07:23:10 AM 34.1820 30.8400 121° Southeast 565 650 37,000  Level FlightAware ADS-B
Thu 07:23:46 AM 34.1350 30.9380 120° Southeast 567 652 37,000  Level FlightAware ADS-B
Thu 07:24:20 AM 34.0890 31.0300 121° Southeast 568 654 37,000  Level FlightAware ADS-B
Thu 07:25:01 AM 34.0400 31.1310 120° Southeast 569 655 37,000  Level FlightAware ADS-B
Thu 07:25:35 AM 33.9890 31.2350 121° Southeast 570 656 37,000  Level FlightAware ADS-B
Thu 07:26:11 AM 33.9400 31.3330 121° Southeast 569 655 37,000  Level FlightAware ADS-B
Thu 07:26:45 AM 33.8940 31.4260 121° Southeast 569 655 37,000  Level FlightAware ADS-B
Thu 07:27:21 AM 33.8470 31.5210 121° Southeast 570 656 37,000  Level FlightAware ADS-B
Thu 07:27:55 AM 33.8000 31.6160 121° Southeast 569 655 37,000  Level FlightAware ADS-B
Thu 07:28:31 AM 33.7510 31.7140 121° Southeast 569 655 37,000  Level FlightAware ADS-B
Thu 07:29:05 AM 33.7050 31.8060 121° Southeast 569 655 37,000  Level FlightAware ADS-B
Thu 07:29:41 AM 33.6560 31.9030 121° Southeast 567 652 37,000  Level FlightAware ADS-B
Thu 07:30:16 AM 33.6090 31.9950 122° Southeast 567 652 37,000  Level FlightAware ADS-B
Thu 07:30:51 AM 33.5630 32.0890 120° Southeast 566 651 37,000  Level FlightAware ADS-B
Thu 07:31:28 AM 33.5120 32.1880 122° Southeast 565 650 37,000  Level FlightAware ADS-B
Thu 07:32:08 AM 33.4560 32.2980 121° Southeast 566 651 37,000  Level FlightAware ADS-B
Thu 07:32:48 AM 33.4010 32.4070 121° Southeast 565 650 37,000  Level FlightAware ADS-B
Thu 07:33:30 AM 33.3490 32.5060 122° Southeast 565 650 37,000 -308 Level FlightAware ADS-B
Thu 07:34:06 AM 33.3020 32.5990 121° Southeast 564 649 36,600 -1,231 Descending FlightAware ADS-B
Thu 07:34:48 AM 33.2410 32.7190 121° Southeast 568 654 35,400 -2,341 Descending FlightAware ADS-B
Thu 07:35:28 AM 33.1910 32.8150 122° Southeast 569 655 33,400 -3,429 Descending FlightAware ADS-B
Thu 07:36:05 AM 33.1340 32.9270 121° Southeast 562 647 31,000 -3,127 Descending FlightAware ADS-B
Thu 07:36:39 AM 33.0930 33.0050 122° Southeast 550 633 29,700 -2,203 Descending FlightAware ADS-B
Thu 07:37:24 AM 33.0290 33.1280 122° Southeast 511 588 28,100 -1,613 Descending FlightAware ADS-B
Thu 07:38:12 AM 32.9770 33.2300 121° Southeast 501 577 27,200 -2,541 Descending FlightAware ADS-B
Thu 07:38:49 AM 32.9260 33.3250 123° Southeast 479 551 24,500 -3,403 Descending FlightAware ADS-B
Thu 07:39:19 AM 32.8910 33.3930 121° Southeast 470 541 23,400 -1,304 Descending FlightAware ADS-B
Thu 07:39:58 AM 32.8460 33.4770 123° Southeast 472 543 23,000 -923 Descending FlightAware ADS-B
Thu 07:40:37 AM 32.8020 33.5640 121° Southeast 469 540 22,200 -1,606 Descending FlightAware ADS-B
Thu 07:41:09 AM 32.7650 33.6320 123° Southeast 449 517 21,100 -1,588 Descending FlightAware ADS-B
Thu 07:41:45 AM 32.7290 33.7090 119° Southeast 419 482 20,400 -1,324 Descending FlightAware ADS-B
Thu 07:42:17 AM 32.7150 33.7780 104° East 398 458 19,600 -1,543 Descending FlightAware ADS-B
Thu 07:42:55 AM 32.7000 33.8580 103° East 379 436 18,600 -1,297 Descending FlightAware ADS-B
Thu 07:43:31 AM 32.6870 33.9270 103° East 351 404 18,000 -1,273 Descending FlightAware ADS-B
Thu 07:44:01 AM 32.6770 33.9810 102° East 341 392 17,200 -1,500 Descending FlightAware ADS-B
Thu 07:44:11 AM 32.6710 33.9960 115° Southeast 336 387 17,000 -1,385 Descending FlightAware ADS-B
Thu 07:44:27 AM 32.6570 34.0220 123° Southeast 330 380 16,600 -1,529 Descending FlightAware ADS-B
Thu 07:45:02 AM 32.6180 34.0650 137° Southeast 324 373 15,700 -1,588 Descending FlightAware ADS-B
Thu 07:45:35 AM 32.5800 34.1040 139° Southeast 321 369 14,800 -1,565 Descending FlightAware ADS-B
Thu 07:46:11 AM 32.5390 34.1450 140° Southeast 318 366 13,900 -1,437 Descending FlightAware ADS-B
Thu 07:46:46 AM 32.5020 34.1820 140° Southeast 314 361 13,100 -1,457 Descending FlightAware ADS-B
Thu 07:47:21 AM 32.4630 34.2230 138° Southeast 309 356 12,200 -1,521 Descending FlightAware ADS-B
Thu 07:47:57 AM 32.4240 34.2620 140° Southeast 304 350 11,300 -1,565 Descending FlightAware ADS-B
Thu 07:48:30 AM 32.3880 34.2990 139° Southeast 303 349 10,400 -1,474 Descending FlightAware ADS-B
Thu 07:48:54 AM 32.3630 34.3240 140° Southeast 297 342 9,900 -714 Descending FlightAware ADS-B
Thu 07:49:12 AM 32.3460 34.3420 138° Southeast 282 325 9,900  Level FlightAware ADS-B
Thu 07:49:40 AM 32.3220 34.3660 140° Southeast 282 325 9,900  Level FlightAware ADS-B
Thu 07:50:04 AM 32.3020 34.3860 140° Southeast 282 325 9,900  Level FlightAware ADS-B
Thu 07:50:28 AM 32.2820 34.4070 138° Southeast 282 325 9,900  Level FlightAware ADS-B
Thu 07:50:52 AM 32.2620 34.4280 138° Southeast 282 325 9,900 -1,304 Level FlightAware ADS-B
Thu 07:53:00 AM 32.0793 34.7101 115° Southeast  Level FlightAware Approximate
Thu 07:53:58 AM 32.1220 34.6630 125° Southeast 4,900  Level FlightAware ADS-B
Thu 07:54:00 AM 32.0080 34.8534 125° Southeast  Level FlightAware Approximate
Thu 07:54:18 AM 32.1100 34.6850 123° Southeast 257 296 4,900  Level FlightAware ADS-B
Thu 07:54:38 AM 32.1010 34.7010 124° Southeast 247 284 5,000 118 Climbing FlightAware ADS-B
Thu 07:55:09 AM 32.0820 34.7360 123° Southeast 214 246 5,000  Level FlightAware ADS-B
Thu 07:55:30 AM 32.0690 34.7610 122° Southeast 212 244 5,000  Level FlightAware ADS-B
Thu 07:55:48 AM 32.0600 34.7750 127° Southeast 213 245 5,000 -279 Level FlightAware ADS-B
Thu 07:56:13 AM 32.0410 34.7970 136° Southeast 210 242 4,800 -558 Descending FlightAware ADS-B
Thu 07:56:31 AM 32.0280 34.8130 134° Southeast 211 243 4,600 -367 Descending FlightAware ADS-B
Thu 07:57:02 AM 32.0100 34.8330 137° Southeast 212 244 4,500 -778 Descending FlightAware ADS-B
Thu 07:57:25 AM 31.9890 34.8560 137° Southeast 216 249 3,900 -1,532 Descending FlightAware ADS-B
Thu 07:57:49 AM 31.9740 34.8770 130° Southeast 213 245 3,300 -1,600 Descending FlightAware ADS-B
Thu 07:57:55 AM 31.9730 34.8810 106° East 212 244 3,100 -1,071 Descending FlightAware ADS-B
Thu 07:58:17 AM 31.9760 34.9090 83° East 201 231 2,800 -610 Descending FlightAware ADS-B
Thu 07:58:54 AM 31.9840 34.9440 75° East 195 224 2,500 -486 Descending FlightAware ADS-B
Thu 08:01:00 AM 32.0095 34.8769 294° West  Level Estimated

Login

Don't have an account? Register now (free) for customized features, flight alerts, and more!